<?xml version="1.0" encoding="UTF-8" standalone="no" ?>
<gpx xmlns="http://www.topografix.com/GPX/1/1" xmlns:xsi="http://www.w3.org/2001/XMLSchema-instance" xsi:schemaLocation="http://www.topografix.com/GPX/1/1 http://www.topografix.com/GPX/1/1/gpx.xsd" version="1.1" creator="VisuGPX - https://www.visugpx.com">
  <metadata>
    <name>Tour du pic du Pin</name>
    <desc><![CDATA[Après avoir quitté l'autoroute de la Jasse, beaucoup plus de calme du coté de l'Aigleton et plus personne en basculant sur le Rivier ...]]></desc>
  </metadata>
  <trk>
    <name><![CDATA[tour du pic du Pin]]></name>
    <cmt><![CDATA[Changements effectués avec After Import Plugin Version 1.1.3626 sur 12/02/2017 22:21:24:
- effacer les valeurs inutiles de  fréquence cardiaque (4737/4739)
- effacer les points inutiles de la piste GPS (3729/4739)
]]></cmt>
    <trkseg>
      <trkpt lat="45.2459" lon="5.97788">
        <ele>1052.6939697266</ele>
        <time>2017-02-12T09:02:10Z</time>
      </trkpt>
      <trkpt lat="45.24566" lon="5.97808">
        <ele>1055.9608154297</ele>
        <time>2017-02-12T09:02:42Z</time>
      </trkpt>
      <trkpt lat="45.24558" lon="5.97824">
        <ele>1059.0678710938</ele>
        <time>2017-02-12T09:02:56Z</time>
      </trkpt>
      <trkpt lat="45.24519" lon="5.97845">
        <ele>1059.9057617188</ele>
        <time>2017-02-12T09:03:31Z</time>
      </trkpt>
      <trkpt lat="45.24517" lon="5.97847">
        <ele>1060.2010498047</ele>
        <time>2017-02-12T09:03:33Z</time>
      </trkpt>
      <trkpt lat="45.24508" lon="5.97855">
        <ele>1061.2893066406</ele>
        <time>2017-02-12T09:03:42Z</time>
      </trkpt>
      <trkpt lat="45.24488" lon="5.97889">
        <ele>1068.5773925781</ele>
        <time>2017-02-12T09:04:06Z</time>
      </trkpt>
      <trkpt lat="45.2448" lon="5.97894">
        <ele>1069.3822021484</ele>
        <time>2017-02-12T09:04:17Z</time>
      </trkpt>
      <trkpt lat="45.24475" lon="5.97891">
        <ele>1068.4976806641</ele>
        <time>2017-02-12T09:04:23Z</time>
      </trkpt>
      <trkpt lat="45.24465" lon="5.97904">
        <ele>1070.8444824219</ele>
        <time>2017-02-12T09:04:35Z</time>
      </trkpt>
      <trkpt lat="45.24442" lon="5.97924">
        <ele>1074.5053710938</ele>
        <time>2017-02-12T09:04:57Z</time>
      </trkpt>
      <trkpt lat="45.24436" lon="5.97923">
        <ele>1074.2017822266</ele>
        <time>2017-02-12T09:05:01Z</time>
      </trkpt>
      <trkpt lat="45.2442" lon="5.9793">
        <ele>1075.4661865234</ele>
        <time>2017-02-12T09:05:14Z</time>
      </trkpt>
      <trkpt lat="45.24406" lon="5.97941">
        <ele>1078.1414794922</ele>
        <time>2017-02-12T09:05:28Z</time>
      </trkpt>
      <trkpt lat="45.24398" lon="5.97943">
        <ele>1078.5399169922</ele>
        <time>2017-02-12T09:05:34Z</time>
      </trkpt>
      <trkpt lat="45.24336" lon="5.97977">
        <ele>1084.2155761719</ele>
        <time>2017-02-12T09:06:27Z</time>
      </trkpt>
      <trkpt lat="45.24327" lon="5.97983">
        <ele>1085.4488525391</ele>
        <time>2017-02-12T09:06:36Z</time>
      </trkpt>
      <trkpt lat="45.24294" lon="5.97998">
        <ele>1089.3356933594</ele>
        <time>2017-02-12T09:07:10Z</time>
      </trkpt>
      <trkpt lat="45.24283" lon="5.98009">
        <ele>1092.4788818359</ele>
        <time>2017-02-12T09:07:22Z</time>
      </trkpt>
      <trkpt lat="45.24279" lon="5.98012">
        <ele>1093.5238037109</ele>
        <time>2017-02-12T09:07:28Z</time>
      </trkpt>
      <trkpt lat="45.24276" lon="5.98012">
        <ele>1093.4102783203</ele>
        <time>2017-02-12T09:07:34Z</time>
      </trkpt>
      <trkpt lat="45.24265" lon="5.98009">
        <ele>1092.6483154297</ele>
        <time>2017-02-12T09:07:40Z</time>
      </trkpt>
      <trkpt lat="45.24258" lon="5.98017">
        <ele>1095.4931640625</ele>
        <time>2017-02-12T09:07:48Z</time>
      </trkpt>
      <trkpt lat="45.24252" lon="5.98018">
        <ele>1095.9552001953</ele>
        <time>2017-02-12T09:07:54Z</time>
      </trkpt>
      <trkpt lat="45.24223" lon="5.98032">
        <ele>1091.6762695312</ele>
        <time>2017-02-12T09:08:22Z</time>
      </trkpt>
      <trkpt lat="45.24212" lon="5.98037">
        <ele>1090.5490722656</ele>
        <time>2017-02-12T09:08:33Z</time>
      </trkpt>
      <trkpt lat="45.24203" lon="5.98045">
        <ele>1090.5905761719</ele>
        <time>2017-02-12T09:08:43Z</time>
      </trkpt>
      <trkpt lat="45.24188" lon="5.98057">
        <ele>1089.0003662109</ele>
        <time>2017-02-12T09:08:57Z</time>
      </trkpt>
      <trkpt lat="45.24159" lon="5.98101">
        <ele>1094.0787353516</ele>
        <time>2017-02-12T09:09:35Z</time>
      </trkpt>
      <trkpt lat="45.24118" lon="5.9813">
        <ele>1094.2611083984</ele>
        <time>2017-02-12T09:10:15Z</time>
      </trkpt>
      <trkpt lat="45.24107" lon="5.98145">
        <ele>1095.5174560547</ele>
        <time>2017-02-12T09:10:28Z</time>
      </trkpt>
      <trkpt lat="45.24102" lon="5.98153">
        <ele>1096.2727050781</ele>
        <time>2017-02-12T09:10:34Z</time>
      </trkpt>
      <trkpt lat="45.24096" lon="5.9817">
        <ele>1099.1711425781</ele>
        <time>2017-02-12T09:10:46Z</time>
      </trkpt>
      <trkpt lat="45.24091" lon="5.98195">
        <ele>1103.3199462891</ele>
        <time>2017-02-12T09:11:02Z</time>
      </trkpt>
      <trkpt lat="45.24088" lon="5.98245">
        <ele>1114.017578125</ele>
        <time>2017-02-12T09:11:33Z</time>
      </trkpt>
      <trkpt lat="45.24074" lon="5.98276">
        <ele>1119.806640625</ele>
        <time>2017-02-12T09:11:55Z</time>
      </trkpt>
      <trkpt lat="45.24071" lon="5.98281">
        <ele>1121.1379394531</ele>
        <time>2017-02-12T09:11:59Z</time>
      </trkpt>
      <trkpt lat="45.24061" lon="5.98292">
        <ele>1124.1470947266</ele>
        <time>2017-02-12T09:12:11Z</time>
      </trkpt>
      <trkpt lat="45.24059" lon="5.98294">
        <ele>1124.5041503906</ele>
        <time>2017-02-12T09:12:13Z</time>
      </trkpt>
      <trkpt lat="45.24045" lon="5.98304">
        <ele>1126.8247070312</ele>
        <time>2017-02-12T09:12:27Z</time>
      </trkpt>
      <trkpt lat="45.24043" lon="5.98305">
        <ele>1127.0159912109</ele>
        <time>2017-02-12T09:12:29Z</time>
      </trkpt>
      <trkpt lat="45.24026" lon="5.98309">
        <ele>1126.9398193359</ele>
        <time>2017-02-12T09:12:45Z</time>
      </trkpt>
      <trkpt lat="45.24017" lon="5.98311">
        <ele>1126.54296875</ele>
        <time>2017-02-12T09:12:53Z</time>
      </trkpt>
      <trkpt lat="45.23984" lon="5.98309">
        <ele>1122.3975830078</ele>
        <time>2017-02-12T09:13:22Z</time>
      </trkpt>
      <trkpt lat="45.2398" lon="5.9831">
        <ele>1122.0577392578</ele>
        <time>2017-02-12T09:13:26Z</time>
      </trkpt>
      <trkpt lat="45.23968" lon="5.98315">
        <ele>1121.2985839844</ele>
        <time>2017-02-12T09:13:37Z</time>
      </trkpt>
      <trkpt lat="45.23957" lon="5.98333">
        <ele>1123.6707763672</ele>
        <time>2017-02-12T09:13:52Z</time>
      </trkpt>
      <trkpt lat="45.23955" lon="5.98335">
        <ele>1123.9571533203</ele>
        <time>2017-02-12T09:13:54Z</time>
      </trkpt>
      <trkpt lat="45.23917" lon="5.98374">
        <ele>1128.2644042969</ele>
        <time>2017-02-12T09:14:36Z</time>
      </trkpt>
      <trkpt lat="45.23912" lon="5.98378">
        <ele>1128.5164794922</ele>
        <time>2017-02-12T09:14:43Z</time>
      </trkpt>
      <trkpt lat="45.23904" lon="5.98396">
        <ele>1131.7081298828</ele>
        <time>2017-02-12T09:14:57Z</time>
      </trkpt>
      <trkpt lat="45.23902" lon="5.98418">
        <ele>1136.7309570312</ele>
        <time>2017-02-12T09:15:12Z</time>
      </trkpt>
      <trkpt lat="45.23888" lon="5.98434">
        <ele>1140.1166992188</ele>
        <time>2017-02-12T09:15:26Z</time>
      </trkpt>
      <trkpt lat="45.23882" lon="5.98438">
        <ele>1141.9985351562</ele>
        <time>2017-02-12T09:15:32Z</time>
      </trkpt>
      <trkpt lat="45.23864" lon="5.98443">
        <ele>1145.9118652344</ele>
        <time>2017-02-12T09:15:48Z</time>
      </trkpt>
      <trkpt lat="45.23855" lon="5.98442">
        <ele>1146.5479736328</ele>
        <time>2017-02-12T09:15:57Z</time>
      </trkpt>
      <trkpt lat="45.23833" lon="5.98436">
        <ele>1147.015625</ele>
        <time>2017-02-12T09:16:17Z</time>
      </trkpt>
      <trkpt lat="45.23819" lon="5.98434">
        <ele>1147.3194580078</ele>
        <time>2017-02-12T09:16:29Z</time>
      </trkpt>
      <trkpt lat="45.23791" lon="5.98434">
        <ele>1147.2160644531</ele>
        <time>2017-02-12T09:16:53Z</time>
      </trkpt>
      <trkpt lat="45.23785" lon="5.98435">
        <ele>1147.0285644531</ele>
        <time>2017-02-12T09:16:59Z</time>
      </trkpt>
      <trkpt lat="45.23767" lon="5.98446">
        <ele>1148.6282958984</ele>
        <time>2017-02-12T09:17:18Z</time>
      </trkpt>
      <trkpt lat="45.23749" lon="5.98455">
        <ele>1150.5485839844</ele>
        <time>2017-02-12T09:17:35Z</time>
      </trkpt>
      <trkpt lat="45.23744" lon="5.98458">
        <ele>1151.3928222656</ele>
        <time>2017-02-12T09:17:40Z</time>
      </trkpt>
      <trkpt lat="45.23714" lon="5.98478">
        <ele>1156.90234375</ele>
        <time>2017-02-12T09:18:12Z</time>
      </trkpt>
      <trkpt lat="45.237" lon="5.9849">
        <ele>1161.2282714844</ele>
        <time>2017-02-12T09:18:28Z</time>
      </trkpt>
      <trkpt lat="45.23698" lon="5.98491">
        <ele>1161.6917724609</ele>
        <time>2017-02-12T09:18:30Z</time>
      </trkpt>
      <trkpt lat="45.23685" lon="5.9849">
        <ele>1160.5261230469</ele>
        <time>2017-02-12T09:18:44Z</time>
      </trkpt>
      <trkpt lat="45.23648" lon="5.98484">
        <ele>1157.3056640625</ele>
        <time>2017-02-12T09:19:15Z</time>
      </trkpt>
      <trkpt lat="45.23638" lon="5.98487">
        <ele>1158.1954345703</ele>
        <time>2017-02-12T09:19:22Z</time>
      </trkpt>
      <trkpt lat="45.23633" lon="5.98488">
        <ele>1158.1461181641</ele>
        <time>2017-02-12T09:19:27Z</time>
      </trkpt>
      <trkpt lat="45.23612" lon="5.98507">
        <ele>1162.4921875</ele>
        <time>2017-02-12T09:19:51Z</time>
      </trkpt>
      <trkpt lat="45.23602" lon="5.98513">
        <ele>1163.3171386719</ele>
        <time>2017-02-12T09:20:03Z</time>
      </trkpt>
      <trkpt lat="45.23593" lon="5.98519">
        <ele>1163.8917236328</ele>
        <time>2017-02-12T09:20:11Z</time>
      </trkpt>
      <trkpt lat="45.23575" lon="5.98526">
        <ele>1163.2999267578</ele>
        <time>2017-02-12T09:20:28Z</time>
      </trkpt>
      <trkpt lat="45.23563" lon="5.98526">
        <ele>1161.6638183594</ele>
        <time>2017-02-12T09:20:38Z</time>
      </trkpt>
      <trkpt lat="45.23552" lon="5.98542">
        <ele>1164.0982666016</ele>
        <time>2017-02-12T09:20:53Z</time>
      </trkpt>
      <trkpt lat="45.23533" lon="5.98564">
        <ele>1167.4304199219</ele>
        <time>2017-02-12T09:21:22Z</time>
      </trkpt>
      <trkpt lat="45.23521" lon="5.98593">
        <ele>1172.2568359375</ele>
        <time>2017-02-12T09:21:43Z</time>
      </trkpt>
      <trkpt lat="45.23506" lon="5.98611">
        <ele>1174.7127685547</ele>
        <time>2017-02-12T09:22:02Z</time>
      </trkpt>
      <trkpt lat="45.235" lon="5.98627">
        <ele>1177.5031738281</ele>
        <time>2017-02-12T09:22:13Z</time>
      </trkpt>
      <trkpt lat="45.23499" lon="5.98629">
        <ele>1177.6457519531</ele>
        <time>2017-02-12T09:22:16Z</time>
      </trkpt>
      <trkpt lat="45.23491" lon="5.98634">
        <ele>1177.697265625</ele>
        <time>2017-02-12T09:22:23Z</time>
      </trkpt>
      <trkpt lat="45.23477" lon="5.98659">
        <ele>1181.2037353516</ele>
        <time>2017-02-12T09:22:44Z</time>
      </trkpt>
      <trkpt lat="45.23471" lon="5.98663">
        <ele>1181.1241455078</ele>
        <time>2017-02-12T09:22:50Z</time>
      </trkpt>
      <trkpt lat="45.23466" lon="5.98667">
        <ele>1181.5888671875</ele>
        <time>2017-02-12T09:22:56Z</time>
      </trkpt>
      <trkpt lat="45.23461" lon="5.98682">
        <ele>1184.1325683594</ele>
        <time>2017-02-12T09:23:06Z</time>
      </trkpt>
      <trkpt lat="45.23455" lon="5.98685">
        <ele>1183.8544921875</ele>
        <time>2017-02-12T09:23:12Z</time>
      </trkpt>
      <trkpt lat="45.23452" lon="5.98707">
        <ele>1187.3565673828</ele>
        <time>2017-02-12T09:23:24Z</time>
      </trkpt>
      <trkpt lat="45.23434" lon="5.98739">
        <ele>1191.6519775391</ele>
        <time>2017-02-12T09:23:49Z</time>
      </trkpt>
      <trkpt lat="45.23424" lon="5.98754">
        <ele>1193.5667724609</ele>
        <time>2017-02-12T09:24:03Z</time>
      </trkpt>
      <trkpt lat="45.23412" lon="5.98766">
        <ele>1194.5317382812</ele>
        <time>2017-02-12T09:24:17Z</time>
      </trkpt>
      <trkpt lat="45.23369" lon="5.98804">
        <ele>1198.3374023438</ele>
        <time>2017-02-12T09:25:03Z</time>
      </trkpt>
      <trkpt lat="45.23358" lon="5.98813">
        <ele>1199.7517089844</ele>
        <time>2017-02-12T09:25:15Z</time>
      </trkpt>
      <trkpt lat="45.23326" lon="5.98834">
        <ele>1204.3082275391</ele>
        <time>2017-02-12T09:25:49Z</time>
      </trkpt>
      <trkpt lat="45.23301" lon="5.98858">
        <ele>1210.3582763672</ele>
        <time>2017-02-12T09:26:17Z</time>
      </trkpt>
      <trkpt lat="45.23274" lon="5.98873">
        <ele>1213.4130859375</ele>
        <time>2017-02-12T09:26:43Z</time>
      </trkpt>
      <trkpt lat="45.23264" lon="5.98878">
        <ele>1215.2944335938</ele>
        <time>2017-02-12T09:26:53Z</time>
      </trkpt>
      <trkpt lat="45.23228" lon="5.98888">
        <ele>1219.4244384766</ele>
        <time>2017-02-12T09:27:26Z</time>
      </trkpt>
      <trkpt lat="45.23203" lon="5.98915">
        <ele>1222.0852050781</ele>
        <time>2017-02-12T09:27:56Z</time>
      </trkpt>
      <trkpt lat="45.23193" lon="5.98934">
        <ele>1224.9786376953</ele>
        <time>2017-02-12T09:28:11Z</time>
      </trkpt>
      <trkpt lat="45.23168" lon="5.98983">
        <ele>1230.6423339844</ele>
        <time>2017-02-12T09:28:51Z</time>
      </trkpt>
      <trkpt lat="45.23159" lon="5.99002">
        <ele>1232.9221191406</ele>
        <time>2017-02-12T09:29:08Z</time>
      </trkpt>
      <trkpt lat="45.23138" lon="5.9906">
        <ele>1241.7918701172</ele>
        <time>2017-02-12T09:29:52Z</time>
      </trkpt>
      <trkpt lat="45.2313" lon="5.9908">
        <ele>1244.203125</ele>
        <time>2017-02-12T09:30:06Z</time>
      </trkpt>
      <trkpt lat="45.23119" lon="5.99094">
        <ele>1245.1563720703</ele>
        <time>2017-02-12T09:30:20Z</time>
      </trkpt>
      <trkpt lat="45.23092" lon="5.99111">
        <ele>1244.5833740234</ele>
        <time>2017-02-12T09:30:47Z</time>
      </trkpt>
      <trkpt lat="45.23067" lon="5.99122">
        <ele>1246.0135498047</ele>
        <time>2017-02-12T09:31:11Z</time>
      </trkpt>
      <trkpt lat="45.23056" lon="5.99122">
        <ele>1245.2652587891</ele>
        <time>2017-02-12T09:31:19Z</time>
      </trkpt>
      <trkpt lat="45.2305" lon="5.99128">
        <ele>1247.8161621094</ele>
        <time>2017-02-12T09:31:28Z</time>
      </trkpt>
      <trkpt lat="45.23028" lon="5.99127">
        <ele>1247.7355957031</ele>
        <time>2017-02-12T09:31:44Z</time>
      </trkpt>
      <trkpt lat="45.23025" lon="5.99134">
        <ele>1251.1510009766</ele>
        <time>2017-02-12T09:31:50Z</time>
      </trkpt>
      <trkpt lat="45.22999" lon="5.99142">
        <ele>1254.4739990234</ele>
        <time>2017-02-12T09:32:14Z</time>
      </trkpt>
      <trkpt lat="45.22996" lon="5.99143">
        <ele>1254.3641357422</ele>
        <time>2017-02-12T09:32:16Z</time>
      </trkpt>
      <trkpt lat="45.22981" lon="5.99155">
        <ele>1258.3809814453</ele>
        <time>2017-02-12T09:32:34Z</time>
      </trkpt>
      <trkpt lat="45.2296" lon="5.9916">
        <ele>1257.8338623047</ele>
        <time>2017-02-12T09:32:53Z</time>
      </trkpt>
      <trkpt lat="45.22953" lon="5.99163">
        <ele>1257.7733154297</ele>
        <time>2017-02-12T09:33:00Z</time>
      </trkpt>
      <trkpt lat="45.22933" lon="5.99161">
        <ele>1254.8109130859</ele>
        <time>2017-02-12T09:33:18Z</time>
      </trkpt>
      <trkpt lat="45.22916" lon="5.99167">
        <ele>1256.1657714844</ele>
        <time>2017-02-12T09:33:34Z</time>
      </trkpt>
      <trkpt lat="45.22907" lon="5.99173">
        <ele>1257.0778808594</ele>
        <time>2017-02-12T09:33:43Z</time>
      </trkpt>
      <trkpt lat="45.22904" lon="5.99177">
        <ele>1258.3148193359</ele>
        <time>2017-02-12T09:33:47Z</time>
      </trkpt>
      <trkpt lat="45.2288" lon="5.99211">
        <ele>1264.9356689453</ele>
        <time>2017-02-12T09:34:19Z</time>
      </trkpt>
      <trkpt lat="45.22858" lon="5.99241">
        <ele>1268.5905761719</ele>
        <time>2017-02-12T09:34:48Z</time>
      </trkpt>
      <trkpt lat="45.22849" lon="5.99254">
        <ele>1269.8929443359</ele>
        <time>2017-02-12T09:35:00Z</time>
      </trkpt>
      <trkpt lat="45.22847" lon="5.99256">
        <ele>1270.2531738281</ele>
        <time>2017-02-12T09:35:02Z</time>
      </trkpt>
      <trkpt lat="45.22829" lon="5.99268">
        <ele>1268.6767578125</ele>
        <time>2017-02-12T09:35:20Z</time>
      </trkpt>
      <trkpt lat="45.22815" lon="5.9927">
        <ele>1264.2886962891</ele>
        <time>2017-02-12T09:35:31Z</time>
      </trkpt>
      <trkpt lat="45.22807" lon="5.99275">
        <ele>1263.3527832031</ele>
        <time>2017-02-12T09:35:39Z</time>
      </trkpt>
      <trkpt lat="45.22807" lon="5.99278">
        <ele>1264.3598632812</ele>
        <time>2017-02-12T09:35:41Z</time>
      </trkpt>
      <trkpt lat="45.22797" lon="5.99289">
        <ele>1266.2899169922</ele>
        <time>2017-02-12T09:35:52Z</time>
      </trkpt>
      <trkpt lat="45.22792" lon="5.99289">
        <ele>1264.62109375</ele>
        <time>2017-02-12T09:35:56Z</time>
      </trkpt>
      <trkpt lat="45.22791" lon="5.99291">
        <ele>1265.1617431641</ele>
        <time>2017-02-12T09:35:58Z</time>
      </trkpt>
      <trkpt lat="45.22782" lon="5.99297">
        <ele>1265.2901611328</ele>
        <time>2017-02-12T09:36:07Z</time>
      </trkpt>
      <trkpt lat="45.22768" lon="5.99313">
        <ele>1267.9296875</ele>
        <time>2017-02-12T09:36:24Z</time>
      </trkpt>
      <trkpt lat="45.22765" lon="5.99324">
        <ele>1273.0639648438</ele>
        <time>2017-02-12T09:36:30Z</time>
      </trkpt>
      <trkpt lat="45.22756" lon="5.9933">
        <ele>1273.3041992188</ele>
        <time>2017-02-12T09:36:40Z</time>
      </trkpt>
      <trkpt lat="45.22753" lon="5.99338">
        <ele>1276.6363525391</ele>
        <time>2017-02-12T09:36:45Z</time>
      </trkpt>
      <trkpt lat="45.22734" lon="5.99363">
        <ele>1284.4345703125</ele>
        <time>2017-02-12T09:37:10Z</time>
      </trkpt>
      <trkpt lat="45.2273" lon="5.99366">
        <ele>1285.0803222656</ele>
        <time>2017-02-12T09:37:14Z</time>
      </trkpt>
      <trkpt lat="45.22727" lon="5.99367">
        <ele>1284.6423339844</ele>
        <time>2017-02-12T09:37:16Z</time>
      </trkpt>
      <trkpt lat="45.22716" lon="5.99381">
        <ele>1290.3028564453</ele>
        <time>2017-02-12T09:37:30Z</time>
      </trkpt>
      <trkpt lat="45.22693" lon="5.99396">
        <ele>1294.7260742188</ele>
        <time>2017-02-12T09:37:54Z</time>
      </trkpt>
      <trkpt lat="45.2269" lon="5.99398">
        <ele>1295.1485595703</ele>
        <time>2017-02-12T09:37:57Z</time>
      </trkpt>
      <trkpt lat="45.22677" lon="5.99412">
        <ele>1301.3728027344</ele>
        <time>2017-02-12T09:38:13Z</time>
      </trkpt>
      <trkpt lat="45.2267" lon="5.99416">
        <ele>1303.3009033203</ele>
        <time>2017-02-12T09:38:20Z</time>
      </trkpt>
      <trkpt lat="45.22654" lon="5.99429">
        <ele>1305.8093261719</ele>
        <time>2017-02-12T09:38:38Z</time>
      </trkpt>
      <trkpt lat="45.22633" lon="5.99442">
        <ele>1306.3699951172</ele>
        <time>2017-02-12T09:39:03Z</time>
      </trkpt>
      <trkpt lat="45.22572" lon="5.99523">
        <ele>1311.5703125</ele>
        <time>2017-02-12T09:40:26Z</time>
      </trkpt>
      <trkpt lat="45.22552" lon="5.99539">
        <ele>1311.3046875</ele>
        <time>2017-02-12T09:40:49Z</time>
      </trkpt>
      <trkpt lat="45.22538" lon="5.9955">
        <ele>1309.1541748047</ele>
        <time>2017-02-12T09:41:04Z</time>
      </trkpt>
      <trkpt lat="45.22533" lon="5.99561">
        <ele>1309.6447753906</ele>
        <time>2017-02-12T09:41:13Z</time>
      </trkpt>
      <trkpt lat="45.22521" lon="5.99565">
        <ele>1305.9741210938</ele>
        <time>2017-02-12T09:41:23Z</time>
      </trkpt>
      <trkpt lat="45.22515" lon="5.99576">
        <ele>1304.8187255859</ele>
        <time>2017-02-12T09:41:32Z</time>
      </trkpt>
      <trkpt lat="45.2251" lon="5.996">
        <ele>1306.7454833984</ele>
        <time>2017-02-12T09:41:46Z</time>
      </trkpt>
      <trkpt lat="45.22508" lon="5.99617">
        <ele>1308.8243408203</ele>
        <time>2017-02-12T09:41:56Z</time>
      </trkpt>
      <trkpt lat="45.22505" lon="5.99633">
        <ele>1310.185546875</ele>
        <time>2017-02-12T09:42:06Z</time>
      </trkpt>
      <trkpt lat="45.22503" lon="5.9964">
        <ele>1310.6782226562</ele>
        <time>2017-02-12T09:42:11Z</time>
      </trkpt>
      <trkpt lat="45.22504" lon="5.99654">
        <ele>1313.3132324219</ele>
        <time>2017-02-12T09:42:19Z</time>
      </trkpt>
      <trkpt lat="45.22511" lon="5.99666">
        <ele>1318.8188476562</ele>
        <time>2017-02-12T09:42:30Z</time>
      </trkpt>
      <trkpt lat="45.22513" lon="5.99681">
        <ele>1322.1678466797</ele>
        <time>2017-02-12T09:42:40Z</time>
      </trkpt>
      <trkpt lat="45.2251" lon="5.99699">
        <ele>1324.1643066406</ele>
        <time>2017-02-12T09:42:52Z</time>
      </trkpt>
      <trkpt lat="45.22508" lon="5.99727">
        <ele>1328.5073242188</ele>
        <time>2017-02-12T09:43:09Z</time>
      </trkpt>
      <trkpt lat="45.22498" lon="5.99742">
        <ele>1325.8807373047</ele>
        <time>2017-02-12T09:43:20Z</time>
      </trkpt>
      <trkpt lat="45.22496" lon="5.99791">
        <ele>1334.2338867188</ele>
        <time>2017-02-12T09:43:51Z</time>
      </trkpt>
      <trkpt lat="45.22497" lon="5.99802">
        <ele>1336.4431152344</ele>
        <time>2017-02-12T09:43:58Z</time>
      </trkpt>
      <trkpt lat="45.2249" lon="5.99811">
        <ele>1334.2927246094</ele>
        <time>2017-02-12T09:44:10Z</time>
      </trkpt>
      <trkpt lat="45.22486" lon="5.99824">
        <ele>1334.3485107422</ele>
        <time>2017-02-12T09:44:21Z</time>
      </trkpt>
      <trkpt lat="45.22477" lon="5.99828">
        <ele>1330.4396972656</ele>
        <time>2017-02-12T09:44:27Z</time>
      </trkpt>
      <trkpt lat="45.22467" lon="5.99839">
        <ele>1329.1904296875</ele>
        <time>2017-02-12T09:44:36Z</time>
      </trkpt>
      <trkpt lat="45.22454" lon="5.99845">
        <ele>1327.7403564453</ele>
        <time>2017-02-12T09:44:46Z</time>
      </trkpt>
      <trkpt lat="45.22451" lon="5.99847">
        <ele>1327.3776855469</ele>
        <time>2017-02-12T09:44:49Z</time>
      </trkpt>
      <trkpt lat="45.22445" lon="5.99859">
        <ele>1328.7232666016</ele>
        <time>2017-02-12T09:45:01Z</time>
      </trkpt>
      <trkpt lat="45.22444" lon="5.99867">
        <ele>1330.2989501953</ele>
        <time>2017-02-12T09:45:06Z</time>
      </trkpt>
      <trkpt lat="45.22447" lon="5.99891">
        <ele>1335.3394775391</ele>
        <time>2017-02-12T09:45:24Z</time>
      </trkpt>
      <trkpt lat="45.22452" lon="5.99903">
        <ele>1340.2021484375</ele>
        <time>2017-02-12T09:45:40Z</time>
      </trkpt>
      <trkpt lat="45.22451" lon="5.9991">
        <ele>1341.7534179688</ele>
        <time>2017-02-12T09:45:47Z</time>
      </trkpt>
      <trkpt lat="45.22456" lon="5.99918">
        <ele>1345.2474365234</ele>
        <time>2017-02-12T09:45:58Z</time>
      </trkpt>
      <trkpt lat="45.22453" lon="5.99935">
        <ele>1349.2243652344</ele>
        <time>2017-02-12T09:46:15Z</time>
      </trkpt>
      <trkpt lat="45.22454" lon="5.99952">
        <ele>1354.7390136719</ele>
        <time>2017-02-12T09:46:25Z</time>
      </trkpt>
      <trkpt lat="45.22452" lon="5.99952">
        <ele>1354.3353271484</ele>
        <time>2017-02-12T09:46:31Z</time>
      </trkpt>
      <trkpt lat="45.22445" lon="5.99969">
        <ele>1358.7735595703</ele>
        <time>2017-02-12T09:46:52Z</time>
      </trkpt>
      <trkpt lat="45.22435" lon="5.99993">
        <ele>1371.2801513672</ele>
        <time>2017-02-12T09:47:15Z</time>
      </trkpt>
      <trkpt lat="45.22435" lon="6">
        <ele>1373.6318359375</ele>
        <time>2017-02-12T09:47:20Z</time>
      </trkpt>
      <trkpt lat="45.22435" lon="6.00004">
        <ele>1374.7838134766</ele>
        <time>2017-02-12T09:47:25Z</time>
      </trkpt>
      <trkpt lat="45.22433" lon="6.00012">
        <ele>1377.2947998047</ele>
        <time>2017-02-12T09:47:33Z</time>
      </trkpt>
      <trkpt lat="45.22435" lon="6.00018">
        <ele>1379.1262207031</ele>
        <time>2017-02-12T09:47:42Z</time>
      </trkpt>
      <trkpt lat="45.2244" lon="6.00025">
        <ele>1381.6248779297</ele>
        <time>2017-02-12T09:47:55Z</time>
      </trkpt>
      <trkpt lat="45.2244" lon="6.00028">
        <ele>1382.5588378906</ele>
        <time>2017-02-12T09:47:57Z</time>
      </trkpt>
      <trkpt lat="45.22436" lon="6.00033">
        <ele>1382.6876220703</ele>
        <time>2017-02-12T09:48:02Z</time>
      </trkpt>
      <trkpt lat="45.22439" lon="6.00037">
        <ele>1383.4085693359</ele>
        <time>2017-02-12T09:48:11Z</time>
      </trkpt>
      <trkpt lat="45.22438" lon="6.00039">
        <ele>1383.6146240234</ele>
        <time>2017-02-12T09:48:14Z</time>
      </trkpt>
      <trkpt lat="45.22437" lon="6.00058">
        <ele>1385.4455566406</ele>
        <time>2017-02-12T09:48:30Z</time>
      </trkpt>
      <trkpt lat="45.22446" lon="6.00059">
        <ele>1386.6215820312</ele>
        <time>2017-02-12T09:48:44Z</time>
      </trkpt>
      <trkpt lat="45.22442" lon="6.00075">
        <ele>1388.6188964844</ele>
        <time>2017-02-12T09:49:04Z</time>
      </trkpt>
      <trkpt lat="45.22452" lon="6.00078">
        <ele>1389.7978515625</ele>
        <time>2017-02-12T09:49:26Z</time>
      </trkpt>
      <trkpt lat="45.22451" lon="6.00079">
        <ele>1389.9432373047</ele>
        <time>2017-02-12T09:49:28Z</time>
      </trkpt>
      <trkpt lat="45.22438" lon="6.00098">
        <ele>1391.0434570312</ele>
        <time>2017-02-12T09:49:48Z</time>
      </trkpt>
      <trkpt lat="45.22432" lon="6.001">
        <ele>1390.9473876953</ele>
        <time>2017-02-12T09:49:54Z</time>
      </trkpt>
      <trkpt lat="45.22425" lon="6.00116">
        <ele>1392.3117675781</ele>
        <time>2017-02-12T09:50:08Z</time>
      </trkpt>
      <trkpt lat="45.22417" lon="6.00121">
        <ele>1392.4284667969</ele>
        <time>2017-02-12T09:50:18Z</time>
      </trkpt>
      <trkpt lat="45.22409" lon="6.00133">
        <ele>1393.8491210938</ele>
        <time>2017-02-12T09:50:30Z</time>
      </trkpt>
      <trkpt lat="45.22401" lon="6.00139">
        <ele>1394.451171875</ele>
        <time>2017-02-12T09:50:40Z</time>
      </trkpt>
      <trkpt lat="45.22382" lon="6.00139">
        <ele>1394.0427246094</ele>
        <time>2017-02-12T09:50:55Z</time>
      </trkpt>
      <trkpt lat="45.2237" lon="6.00154">
        <ele>1395.685546875</ele>
        <time>2017-02-12T09:51:11Z</time>
      </trkpt>
      <trkpt lat="45.22363" lon="6.00153">
        <ele>1395.5567626953</ele>
        <time>2017-02-12T09:51:17Z</time>
      </trkpt>
      <trkpt lat="45.22359" lon="6.00156">
        <ele>1396.1385498047</ele>
        <time>2017-02-12T09:51:22Z</time>
      </trkpt>
      <trkpt lat="45.22351" lon="6.00167">
        <ele>1397.7462158203</ele>
        <time>2017-02-12T09:51:34Z</time>
      </trkpt>
      <trkpt lat="45.2234" lon="6.00173">
        <ele>1399.5795898438</ele>
        <time>2017-02-12T09:51:46Z</time>
      </trkpt>
      <trkpt lat="45.22337" lon="6.00183">
        <ele>1401.6463623047</ele>
        <time>2017-02-12T09:51:53Z</time>
      </trkpt>
      <trkpt lat="45.22327" lon="6.00202">
        <ele>1407.1214599609</ele>
        <time>2017-02-12T09:52:10Z</time>
      </trkpt>
      <trkpt lat="45.22316" lon="6.00209">
        <ele>1411.1595458984</ele>
        <time>2017-02-12T09:52:24Z</time>
      </trkpt>
      <trkpt lat="45.22303" lon="6.0021">
        <ele>1414.0660400391</ele>
        <time>2017-02-12T09:52:40Z</time>
      </trkpt>
      <trkpt lat="45.22303" lon="6.00213">
        <ele>1414.5308837891</ele>
        <time>2017-02-12T09:52:44Z</time>
      </trkpt>
      <trkpt lat="45.22306" lon="6.00246">
        <ele>1416.6911621094</ele>
        <time>2017-02-12T09:53:22Z</time>
      </trkpt>
      <trkpt lat="45.22313" lon="6.0026">
        <ele>1418.1429443359</ele>
        <time>2017-02-12T09:53:41Z</time>
      </trkpt>
      <trkpt lat="45.22319" lon="6.00272">
        <ele>1420.0913085938</ele>
        <time>2017-02-12T09:53:56Z</time>
      </trkpt>
      <trkpt lat="45.22321" lon="6.00284">
        <ele>1422.0454101562</ele>
        <time>2017-02-12T09:54:08Z</time>
      </trkpt>
      <trkpt lat="45.22312" lon="6.00329">
        <ele>1428.4407958984</ele>
        <time>2017-02-12T09:54:45Z</time>
      </trkpt>
      <trkpt lat="45.22309" lon="6.00346">
        <ele>1431.3483886719</ele>
        <time>2017-02-12T09:55:01Z</time>
      </trkpt>
      <trkpt lat="45.22298" lon="6.00368">
        <ele>1436.8443603516</ele>
        <time>2017-02-12T09:55:28Z</time>
      </trkpt>
      <trkpt lat="45.22298" lon="6.00369">
        <ele>1437.2375488281</ele>
        <time>2017-02-12T09:55:31Z</time>
      </trkpt>
      <trkpt lat="45.22298" lon="6.00387">
        <ele>1440.9504394531</ele>
        <time>2017-02-12T09:55:52Z</time>
      </trkpt>
      <trkpt lat="45.2229" lon="6.00394">
        <ele>1444.5992431641</ele>
        <time>2017-02-12T09:56:05Z</time>
      </trkpt>
      <trkpt lat="45.22283" lon="6.00409">
        <ele>1450.4425048828</ele>
        <time>2017-02-12T09:56:30Z</time>
      </trkpt>
      <trkpt lat="45.22281" lon="6.0041">
        <ele>1451.2989501953</ele>
        <time>2017-02-12T09:56:33Z</time>
      </trkpt>
      <trkpt lat="45.22267" lon="6.00415">
        <ele>1456.6845703125</ele>
        <time>2017-02-12T09:56:58Z</time>
      </trkpt>
      <trkpt lat="45.22266" lon="6.00418">
        <ele>1457.8560791016</ele>
        <time>2017-02-12T09:57:05Z</time>
      </trkpt>
      <trkpt lat="45.22266" lon="6.00425">
        <ele>1459.3425292969</ele>
        <time>2017-02-12T09:57:14Z</time>
      </trkpt>
      <trkpt lat="45.22259" lon="6.00429">
        <ele>1462.0183105469</ele>
        <time>2017-02-12T09:57:29Z</time>
      </trkpt>
      <trkpt lat="45.22256" lon="6.00436">
        <ele>1464.1263427734</ele>
        <time>2017-02-12T09:57:40Z</time>
      </trkpt>
      <trkpt lat="45.22241" lon="6.00432">
        <ele>1468.9615478516</ele>
        <time>2017-02-12T09:58:05Z</time>
      </trkpt>
      <trkpt lat="45.22234" lon="6.0044">
        <ele>1473.3939208984</ele>
        <time>2017-02-12T09:58:19Z</time>
      </trkpt>
      <trkpt lat="45.22237" lon="6.00458">
        <ele>1475.6893310547</ele>
        <time>2017-02-12T09:58:41Z</time>
      </trkpt>
      <trkpt lat="45.22237" lon="6.00463">
        <ele>1476.9564208984</ele>
        <time>2017-02-12T09:58:47Z</time>
      </trkpt>
      <trkpt lat="45.22232" lon="6.00484">
        <ele>1483.0299072266</ele>
        <time>2017-02-12T09:59:13Z</time>
      </trkpt>
      <trkpt lat="45.22242" lon="6.00508">
        <ele>1482.3828125</ele>
        <time>2017-02-12T09:59:42Z</time>
      </trkpt>
      <trkpt lat="45.22244" lon="6.00512">
        <ele>1482.240234375</ele>
        <time>2017-02-12T09:59:47Z</time>
      </trkpt>
      <trkpt lat="45.2224" lon="6.00514">
        <ele>1484.6812744141</ele>
        <time>2017-02-12T09:59:56Z</time>
      </trkpt>
      <trkpt lat="45.22226" lon="6.00511">
        <ele>1490.9040527344</ele>
        <time>2017-02-12T10:00:10Z</time>
      </trkpt>
      <trkpt lat="45.22223" lon="6.00511">
        <ele>1492.5021972656</ele>
        <time>2017-02-12T10:00:14Z</time>
      </trkpt>
      <trkpt lat="45.22222" lon="6.00516">
        <ele>1494.1530761719</ele>
        <time>2017-02-12T10:00:21Z</time>
      </trkpt>
      <trkpt lat="45.22224" lon="6.00522">
        <ele>1494.1982421875</ele>
        <time>2017-02-12T10:00:30Z</time>
      </trkpt>
      <trkpt lat="45.22226" lon="6.0054">
        <ele>1495.9512939453</ele>
        <time>2017-02-12T10:00:48Z</time>
      </trkpt>
      <trkpt lat="45.22226" lon="6.00546">
        <ele>1497.2492675781</ele>
        <time>2017-02-12T10:00:54Z</time>
      </trkpt>
      <trkpt lat="45.22228" lon="6.0059">
        <ele>1504.4215087891</ele>
        <time>2017-02-12T10:01:51Z</time>
      </trkpt>
      <trkpt lat="45.22229" lon="6.00595">
        <ele>1505.1926269531</ele>
        <time>2017-02-12T10:01:57Z</time>
      </trkpt>
      <trkpt lat="45.22242" lon="6.00644">
        <ele>1509.4665527344</ele>
        <time>2017-02-12T10:03:01Z</time>
      </trkpt>
      <trkpt lat="45.22248" lon="6.00663">
        <ele>1511.7646484375</ele>
        <time>2017-02-12T10:03:26Z</time>
      </trkpt>
      <trkpt lat="45.22246" lon="6.00669">
        <ele>1513.1213378906</ele>
        <time>2017-02-12T10:03:32Z</time>
      </trkpt>
      <trkpt lat="45.2224" lon="6.00697">
        <ele>1517.8879394531</ele>
        <time>2017-02-12T10:04:01Z</time>
      </trkpt>
      <trkpt lat="45.2224" lon="6.00715">
        <ele>1520.9979248047</ele>
        <time>2017-02-12T10:04:15Z</time>
      </trkpt>
      <trkpt lat="45.2224" lon="6.00745">
        <ele>1527.5948486328</ele>
        <time>2017-02-12T10:04:45Z</time>
      </trkpt>
      <trkpt lat="45.22232" lon="6.00771">
        <ele>1534.9825439453</ele>
        <time>2017-02-12T10:05:11Z</time>
      </trkpt>
      <trkpt lat="45.22231" lon="6.00772">
        <ele>1535.4212646484</ele>
        <time>2017-02-12T10:05:14Z</time>
      </trkpt>
      <trkpt lat="45.22233" lon="6.00787">
        <ele>1539.4813232422</ele>
        <time>2017-02-12T10:05:32Z</time>
      </trkpt>
      <trkpt lat="45.22227" lon="6.00811">
        <ele>1548.4887695312</ele>
        <time>2017-02-12T10:06:05Z</time>
      </trkpt>
      <trkpt lat="45.22225" lon="6.0083">
        <ele>1555.8148193359</ele>
        <time>2017-02-12T10:06:28Z</time>
      </trkpt>
      <trkpt lat="45.22227" lon="6.0084">
        <ele>1558.3994140625</ele>
        <time>2017-02-12T10:06:43Z</time>
      </trkpt>
      <trkpt lat="45.22232" lon="6.0085">
        <ele>1559.8056640625</ele>
        <time>2017-02-12T10:06:57Z</time>
      </trkpt>
      <trkpt lat="45.22243" lon="6.00869">
        <ele>1558.6395263672</ele>
        <time>2017-02-12T10:07:23Z</time>
      </trkpt>
      <trkpt lat="45.22245" lon="6.00891">
        <ele>1562.7271728516</ele>
        <time>2017-02-12T10:07:48Z</time>
      </trkpt>
      <trkpt lat="45.22248" lon="6.00899">
        <ele>1563.0422363281</ele>
        <time>2017-02-12T10:07:58Z</time>
      </trkpt>
      <trkpt lat="45.22257" lon="6.00906">
        <ele>1564.4049072266</ele>
        <time>2017-02-12T10:08:18Z</time>
      </trkpt>
      <trkpt lat="45.22258" lon="6.00907">
        <ele>1564.8043212891</ele>
        <time>2017-02-12T10:08:21Z</time>
      </trkpt>
      <trkpt lat="45.22243" lon="6.00924">
        <ele>1571.9588623047</ele>
        <time>2017-02-12T10:08:50Z</time>
      </trkpt>
      <trkpt lat="45.2224" lon="6.00927">
        <ele>1574.3830566406</ele>
        <time>2017-02-12T10:08:56Z</time>
      </trkpt>
      <trkpt lat="45.22236" lon="6.00925">
        <ele>1576.5378417969</ele>
        <time>2017-02-12T10:09:03Z</time>
      </trkpt>
      <trkpt lat="45.2223" lon="6.00928">
        <ele>1580.6433105469</ele>
        <time>2017-02-12T10:09:14Z</time>
      </trkpt>
      <trkpt lat="45.22229" lon="6.0093">
        <ele>1581.4320068359</ele>
        <time>2017-02-12T10:09:16Z</time>
      </trkpt>
      <trkpt lat="45.22232" lon="6.00946">
        <ele>1583.1651611328</ele>
        <time>2017-02-12T10:09:37Z</time>
      </trkpt>
      <trkpt lat="45.22236" lon="6.01025">
        <ele>1595.0354003906</ele>
        <time>2017-02-12T10:10:59Z</time>
      </trkpt>
      <trkpt lat="45.22232" lon="6.01064">
        <ele>1601.1868896484</ele>
        <time>2017-02-12T10:11:37Z</time>
      </trkpt>
      <trkpt lat="45.22238" lon="6.01116">
        <ele>1607.0895996094</ele>
        <time>2017-02-12T10:12:34Z</time>
      </trkpt>
      <trkpt lat="45.2224" lon="6.01129">
        <ele>1609.0637207031</ele>
        <time>2017-02-12T10:12:46Z</time>
      </trkpt>
      <trkpt lat="45.22248" lon="6.01159">
        <ele>1612.2829589844</ele>
        <time>2017-02-12T10:13:18Z</time>
      </trkpt>
      <trkpt lat="45.22255" lon="6.01164">
        <ele>1612.7163085938</ele>
        <time>2017-02-12T10:13:29Z</time>
      </trkpt>
      <trkpt lat="45.22256" lon="6.01175">
        <ele>1614.2224121094</ele>
        <time>2017-02-12T10:13:38Z</time>
      </trkpt>
      <trkpt lat="45.22256" lon="6.01178">
        <ele>1614.7689208984</ele>
        <time>2017-02-12T10:13:43Z</time>
      </trkpt>
      <trkpt lat="45.2226" lon="6.01181">
        <ele>1615.2976074219</ele>
        <time>2017-02-12T10:13:48Z</time>
      </trkpt>
      <trkpt lat="45.22265" lon="6.01201">
        <ele>1618.9898681641</ele>
        <time>2017-02-12T10:14:05Z</time>
      </trkpt>
      <trkpt lat="45.22263" lon="6.01209">
        <ele>1620.5081787109</ele>
        <time>2017-02-12T10:14:12Z</time>
      </trkpt>
      <trkpt lat="45.22256" lon="6.0121">
        <ele>1620.3623046875</ele>
        <time>2017-02-12T10:14:21Z</time>
      </trkpt>
      <trkpt lat="45.22252" lon="6.0122">
        <ele>1621.8922119141</ele>
        <time>2017-02-12T10:14:30Z</time>
      </trkpt>
      <trkpt lat="45.2225" lon="6.01221">
        <ele>1621.8768310547</ele>
        <time>2017-02-12T10:14:32Z</time>
      </trkpt>
      <trkpt lat="45.22248" lon="6.01223">
        <ele>1622.1761474609</ele>
        <time>2017-02-12T10:14:36Z</time>
      </trkpt>
      <trkpt lat="45.22241" lon="6.01233">
        <ele>1625.6507568359</ele>
        <time>2017-02-12T10:14:51Z</time>
      </trkpt>
      <trkpt lat="45.22239" lon="6.01241">
        <ele>1627.8780517578</ele>
        <time>2017-02-12T10:14:59Z</time>
      </trkpt>
      <trkpt lat="45.22232" lon="6.0127">
        <ele>1634.9106445312</ele>
        <time>2017-02-12T10:15:38Z</time>
      </trkpt>
      <trkpt lat="45.2223" lon="6.01284">
        <ele>1638.0698242188</ele>
        <time>2017-02-12T10:15:54Z</time>
      </trkpt>
      <trkpt lat="45.22232" lon="6.01296">
        <ele>1640.9797363281</ele>
        <time>2017-02-12T10:16:08Z</time>
      </trkpt>
      <trkpt lat="45.22232" lon="6.01301">
        <ele>1642.39453125</ele>
        <time>2017-02-12T10:16:14Z</time>
      </trkpt>
      <trkpt lat="45.22239" lon="6.01299">
        <ele>1641.9812011719</ele>
        <time>2017-02-12T10:16:20Z</time>
      </trkpt>
      <trkpt lat="45.22242" lon="6.01304">
        <ele>1643.4825439453</ele>
        <time>2017-02-12T10:16:31Z</time>
      </trkpt>
      <trkpt lat="45.22249" lon="6.01307">
        <ele>1644.2351074219</ele>
        <time>2017-02-12T10:16:42Z</time>
      </trkpt>
      <trkpt lat="45.22261" lon="6.01304">
        <ele>1644.4932861328</ele>
        <time>2017-02-12T10:16:58Z</time>
      </trkpt>
      <trkpt lat="45.22262" lon="6.013">
        <ele>1643.8039550781</ele>
        <time>2017-02-12T10:17:01Z</time>
      </trkpt>
      <trkpt lat="45.22268" lon="6.01299">
        <ele>1644.0260009766</ele>
        <time>2017-02-12T10:17:09Z</time>
      </trkpt>
      <trkpt lat="45.22281" lon="6.01303">
        <ele>1646.3939208984</ele>
        <time>2017-02-12T10:17:27Z</time>
      </trkpt>
      <trkpt lat="45.22284" lon="6.01303">
        <ele>1646.9875488281</ele>
        <time>2017-02-12T10:17:31Z</time>
      </trkpt>
      <trkpt lat="45.22285" lon="6.01306">
        <ele>1647.9675292969</ele>
        <time>2017-02-12T10:17:36Z</time>
      </trkpt>
      <trkpt lat="45.22279" lon="6.01316">
        <ele>1648.3625488281</ele>
        <time>2017-02-12T10:17:51Z</time>
      </trkpt>
      <trkpt lat="45.22278" lon="6.01325">
        <ele>1650.212890625</ele>
        <time>2017-02-12T10:17:58Z</time>
      </trkpt>
      <trkpt lat="45.22277" lon="6.01354">
        <ele>1658.0087890625</ele>
        <time>2017-02-12T10:18:26Z</time>
      </trkpt>
      <trkpt lat="45.22277" lon="6.01358">
        <ele>1659.0906982422</ele>
        <time>2017-02-12T10:18:29Z</time>
      </trkpt>
      <trkpt lat="45.22263" lon="6.01364">
        <ele>1660.4638671875</ele>
        <time>2017-02-12T10:18:45Z</time>
      </trkpt>
      <trkpt lat="45.2226" lon="6.01367">
        <ele>1661.1179199219</ele>
        <time>2017-02-12T10:18:50Z</time>
      </trkpt>
      <trkpt lat="45.22237" lon="6.01388">
        <ele>1661.5657958984</ele>
        <time>2017-02-12T10:19:27Z</time>
      </trkpt>
      <trkpt lat="45.22231" lon="6.01401">
        <ele>1662.3485107422</ele>
        <time>2017-02-12T10:19:43Z</time>
      </trkpt>
      <trkpt lat="45.22227" lon="6.01421">
        <ele>1664.1734619141</ele>
        <time>2017-02-12T10:20:05Z</time>
      </trkpt>
      <trkpt lat="45.22233" lon="6.01444">
        <ele>1667.3759765625</ele>
        <time>2017-02-12T10:20:23Z</time>
      </trkpt>
      <trkpt lat="45.22239" lon="6.01472">
        <ele>1668.2241210938</ele>
        <time>2017-02-12T10:20:48Z</time>
      </trkpt>
      <trkpt lat="45.22253" lon="6.01545">
        <ele>1667.1937255859</ele>
        <time>2017-02-12T10:21:37Z</time>
      </trkpt>
      <trkpt lat="45.2226" lon="6.01601">
        <ele>1667.1300048828</ele>
        <time>2017-02-12T10:22:11Z</time>
      </trkpt>
      <trkpt lat="45.22262" lon="6.01646">
        <ele>1665.3781738281</ele>
        <time>2017-02-12T10:22:31Z</time>
      </trkpt>
      <trkpt lat="45.22265" lon="6.01673">
        <ele>1666.6594238281</ele>
        <time>2017-02-12T10:22:41Z</time>
      </trkpt>
      <trkpt lat="45.22265" lon="6.01683">
        <ele>1666.6264648438</ele>
        <time>2017-02-12T10:22:45Z</time>
      </trkpt>
      <trkpt lat="45.22266" lon="6.01708">
        <ele>1668.404296875</ele>
        <time>2017-02-12T10:22:57Z</time>
      </trkpt>
      <trkpt lat="45.22265" lon="6.01723">
        <ele>1669.9127197266</ele>
        <time>2017-02-12T10:23:05Z</time>
      </trkpt>
      <trkpt lat="45.22266" lon="6.01734">
        <ele>1671.716796875</ele>
        <time>2017-02-12T10:23:12Z</time>
      </trkpt>
      <trkpt lat="45.22271" lon="6.01765">
        <ele>1676.3840332031</ele>
        <time>2017-02-12T10:23:44Z</time>
      </trkpt>
      <trkpt lat="45.22271" lon="6.01767">
        <ele>1676.6735839844</ele>
        <time>2017-02-12T10:23:46Z</time>
      </trkpt>
      <trkpt lat="45.22269" lon="6.01815">
        <ele>1680.6770019531</ele>
        <time>2017-02-12T10:24:39Z</time>
      </trkpt>
      <trkpt lat="45.22274" lon="6.01815">
        <ele>1681.5318603516</ele>
        <time>2017-02-12T10:24:56Z</time>
      </trkpt>
      <trkpt lat="45.22272" lon="6.01841">
        <ele>1683.9230957031</ele>
        <time>2017-02-12T10:25:15Z</time>
      </trkpt>
      <trkpt lat="45.22267" lon="6.01848">
        <ele>1683.9659423828</ele>
        <time>2017-02-12T10:25:26Z</time>
      </trkpt>
      <trkpt lat="45.22261" lon="6.01876">
        <ele>1686.1976318359</ele>
        <time>2017-02-12T10:25:46Z</time>
      </trkpt>
      <trkpt lat="45.22252" lon="6.0192">
        <ele>1690.4844970703</ele>
        <time>2017-02-12T10:26:23Z</time>
      </trkpt>
      <trkpt lat="45.22252" lon="6.0193">
        <ele>1691.1298828125</ele>
        <time>2017-02-12T10:26:31Z</time>
      </trkpt>
      <trkpt lat="45.22254" lon="6.01964">
        <ele>1694.5632324219</ele>
        <time>2017-02-12T10:27:01Z</time>
      </trkpt>
      <trkpt lat="45.22254" lon="6.01967">
        <ele>1694.8258056641</ele>
        <time>2017-02-12T10:27:03Z</time>
      </trkpt>
      <trkpt lat="45.2225" lon="6.01986">
        <ele>1696.9296875</ele>
        <time>2017-02-12T10:27:11Z</time>
      </trkpt>
      <trkpt lat="45.22249" lon="6.01995">
        <ele>1698.0373535156</ele>
        <time>2017-02-12T10:27:19Z</time>
      </trkpt>
      <trkpt lat="45.22253" lon="6.02067">
        <ele>1709.9613037109</ele>
        <time>2017-02-12T10:28:41Z</time>
      </trkpt>
      <trkpt lat="45.22257" lon="6.02082">
        <ele>1712.5430908203</ele>
        <time>2017-02-12T10:29:04Z</time>
      </trkpt>
      <trkpt lat="45.22262" lon="6.02094">
        <ele>1715.4105224609</ele>
        <time>2017-02-12T10:29:22Z</time>
      </trkpt>
      <trkpt lat="45.22272" lon="6.02087">
        <ele>1715.1715087891</ele>
        <time>2017-02-12T10:29:33Z</time>
      </trkpt>
      <trkpt lat="45.22276" lon="6.02088">
        <ele>1715.6511230469</ele>
        <time>2017-02-12T10:29:37Z</time>
      </trkpt>
      <trkpt lat="45.22281" lon="6.02093">
        <ele>1717.1094970703</ele>
        <time>2017-02-12T10:29:46Z</time>
      </trkpt>
      <trkpt lat="45.22286" lon="6.02105">
        <ele>1719.900390625</ele>
        <time>2017-02-12T10:30:00Z</time>
      </trkpt>
      <trkpt lat="45.22287" lon="6.02107">
        <ele>1720.2783203125</ele>
        <time>2017-02-12T10:30:02Z</time>
      </trkpt>
      <trkpt lat="45.22288" lon="6.02124">
        <ele>1723.6157226562</ele>
        <time>2017-02-12T10:30:18Z</time>
      </trkpt>
      <trkpt lat="45.22288" lon="6.02126">
        <ele>1723.9569091797</ele>
        <time>2017-02-12T10:30:20Z</time>
      </trkpt>
      <trkpt lat="45.22297" lon="6.02161">
        <ele>1732.28515625</ele>
        <time>2017-02-12T10:31:00Z</time>
      </trkpt>
      <trkpt lat="45.22305" lon="6.02176">
        <ele>1736.8594970703</ele>
        <time>2017-02-12T10:31:22Z</time>
      </trkpt>
      <trkpt lat="45.22332" lon="6.02224">
        <ele>1747.3170166016</ele>
        <time>2017-02-12T10:32:28Z</time>
      </trkpt>
      <trkpt lat="45.22343" lon="6.02237">
        <ele>1751.0205078125</ele>
        <time>2017-02-12T10:32:53Z</time>
      </trkpt>
      <trkpt lat="45.22355" lon="6.02253">
        <ele>1754.8494873047</ele>
        <time>2017-02-12T10:33:23Z</time>
      </trkpt>
      <trkpt lat="45.22356" lon="6.02254">
        <ele>1755.0706787109</ele>
        <time>2017-02-12T10:33:26Z</time>
      </trkpt>
      <trkpt lat="45.22369" lon="6.02261">
        <ele>1756.6185302734</ele>
        <time>2017-02-12T10:33:48Z</time>
      </trkpt>
      <trkpt lat="45.22372" lon="6.02261">
        <ele>1756.7139892578</ele>
        <time>2017-02-12T10:33:52Z</time>
      </trkpt>
      <trkpt lat="45.22383" lon="6.02261">
        <ele>1756.9035644531</ele>
        <time>2017-02-12T10:34:14Z</time>
      </trkpt>
      <trkpt lat="45.22384" lon="6.02273">
        <ele>1759.14453125</ele>
        <time>2017-02-12T10:34:30Z</time>
      </trkpt>
      <trkpt lat="45.22388" lon="6.02317">
        <ele>1767.8516845703</ele>
        <time>2017-02-12T10:35:28Z</time>
      </trkpt>
      <trkpt lat="45.22387" lon="6.02338">
        <ele>1771.5191650391</ele>
        <time>2017-02-12T10:35:55Z</time>
      </trkpt>
      <trkpt lat="45.2239" lon="6.02353">
        <ele>1774.7940673828</ele>
        <time>2017-02-12T10:36:16Z</time>
      </trkpt>
      <trkpt lat="45.22392" lon="6.02369">
        <ele>1778.0126953125</ele>
        <time>2017-02-12T10:36:38Z</time>
      </trkpt>
      <trkpt lat="45.22413" lon="6.02373">
        <ele>1781.7155761719</ele>
        <time>2017-02-12T10:37:22Z</time>
      </trkpt>
      <trkpt lat="45.22421" lon="6.02383">
        <ele>1784.7437744141</ele>
        <time>2017-02-12T10:37:40Z</time>
      </trkpt>
      <trkpt lat="45.22429" lon="6.02392">
        <ele>1788.7987060547</ele>
        <time>2017-02-12T10:38:03Z</time>
      </trkpt>
      <trkpt lat="45.22433" lon="6.02415">
        <ele>1792.0263671875</ele>
        <time>2017-02-12T10:38:36Z</time>
      </trkpt>
      <trkpt lat="45.22442" lon="6.0242">
        <ele>1795.4147949219</ele>
        <time>2017-02-12T10:38:58Z</time>
      </trkpt>
      <trkpt lat="45.22447" lon="6.02434">
        <ele>1798.4185791016</ele>
        <time>2017-02-12T10:39:21Z</time>
      </trkpt>
      <trkpt lat="45.22451" lon="6.02434">
        <ele>1799.8562011719</ele>
        <time>2017-02-12T10:39:30Z</time>
      </trkpt>
      <trkpt lat="45.22456" lon="6.02435">
        <ele>1802.0440673828</ele>
        <time>2017-02-12T10:39:41Z</time>
      </trkpt>
      <trkpt lat="45.22456" lon="6.02471">
        <ele>1805.49609375</ele>
        <time>2017-02-12T10:40:32Z</time>
      </trkpt>
      <trkpt lat="45.22457" lon="6.02476">
        <ele>1806.1959228516</ele>
        <time>2017-02-12T10:40:39Z</time>
      </trkpt>
      <trkpt lat="45.22466" lon="6.02488">
        <ele>1811.7934570312</ele>
        <time>2017-02-12T10:41:00Z</time>
      </trkpt>
      <trkpt lat="45.2247" lon="6.02495">
        <ele>1815.0577392578</ele>
        <time>2017-02-12T10:41:12Z</time>
      </trkpt>
      <trkpt lat="45.22474" lon="6.0251">
        <ele>1818.4852294922</ele>
        <time>2017-02-12T10:41:32Z</time>
      </trkpt>
      <trkpt lat="45.22478" lon="6.02528">
        <ele>1822.2232666016</ele>
        <time>2017-02-12T10:41:54Z</time>
      </trkpt>
      <trkpt lat="45.22482" lon="6.02542">
        <ele>1826.5567626953</ele>
        <time>2017-02-12T10:42:15Z</time>
      </trkpt>
      <trkpt lat="45.2249" lon="6.02551">
        <ele>1830.7930908203</ele>
        <time>2017-02-12T10:42:33Z</time>
      </trkpt>
      <trkpt lat="45.22495" lon="6.02568">
        <ele>1835.7752685547</ele>
        <time>2017-02-12T10:42:59Z</time>
      </trkpt>
      <trkpt lat="45.22501" lon="6.02568">
        <ele>1837.5069580078</ele>
        <time>2017-02-12T10:43:13Z</time>
      </trkpt>
      <trkpt lat="45.22503" lon="6.0257">
        <ele>1838.0939941406</ele>
        <time>2017-02-12T10:43:16Z</time>
      </trkpt>
      <trkpt lat="45.22507" lon="6.02589">
        <ele>1842.4783935547</ele>
        <time>2017-02-12T10:43:40Z</time>
      </trkpt>
      <trkpt lat="45.22516" lon="6.02591">
        <ele>1844.7666015625</ele>
        <time>2017-02-12T10:43:56Z</time>
      </trkpt>
      <trkpt lat="45.22527" lon="6.026">
        <ele>1848.3200683594</ele>
        <time>2017-02-12T10:44:23Z</time>
      </trkpt>
      <trkpt lat="45.22529" lon="6.02602">
        <ele>1848.9020996094</ele>
        <time>2017-02-12T10:44:26Z</time>
      </trkpt>
      <trkpt lat="45.2253" lon="6.02616">
        <ele>1851.5877685547</ele>
        <time>2017-02-12T10:44:41Z</time>
      </trkpt>
      <trkpt lat="45.22532" lon="6.02632">
        <ele>1854.8304443359</ele>
        <time>2017-02-12T10:45:06Z</time>
      </trkpt>
      <trkpt lat="45.2254" lon="6.02643">
        <ele>1859.1451416016</ele>
        <time>2017-02-12T10:45:29Z</time>
      </trkpt>
      <trkpt lat="45.22543" lon="6.02652">
        <ele>1861.8197021484</ele>
        <time>2017-02-12T10:45:41Z</time>
      </trkpt>
      <trkpt lat="45.22549" lon="6.02666">
        <ele>1866.0185546875</ele>
        <time>2017-02-12T10:45:57Z</time>
      </trkpt>
      <trkpt lat="45.22546" lon="6.02675">
        <ele>1867.6520996094</ele>
        <time>2017-02-12T10:46:07Z</time>
      </trkpt>
      <trkpt lat="45.22542" lon="6.02683">
        <ele>1869.37890625</ele>
        <time>2017-02-12T10:46:25Z</time>
      </trkpt>
      <trkpt lat="45.22548" lon="6.02692">
        <ele>1872.6309814453</ele>
        <time>2017-02-12T10:46:43Z</time>
      </trkpt>
      <trkpt lat="45.22556" lon="6.02698">
        <ele>1874.6868896484</ele>
        <time>2017-02-12T10:47:00Z</time>
      </trkpt>
      <trkpt lat="45.2256" lon="6.02697">
        <ele>1874.7844238281</ele>
        <time>2017-02-12T10:47:10Z</time>
      </trkpt>
      <trkpt lat="45.22563" lon="6.02696">
        <ele>1874.7880859375</ele>
        <time>2017-02-12T10:47:16Z</time>
      </trkpt>
      <trkpt lat="45.22567" lon="6.02699">
        <ele>1875.5942382812</ele>
        <time>2017-02-12T10:47:24Z</time>
      </trkpt>
      <trkpt lat="45.22566" lon="6.02712">
        <ele>1878.0139160156</ele>
        <time>2017-02-12T10:47:40Z</time>
      </trkpt>
      <trkpt lat="45.22568" lon="6.02723">
        <ele>1880.2622070312</ele>
        <time>2017-02-12T10:48:00Z</time>
      </trkpt>
      <trkpt lat="45.22564" lon="6.02726">
        <ele>1881.5728759766</ele>
        <time>2017-02-12T10:48:08Z</time>
      </trkpt>
      <trkpt lat="45.22553" lon="6.02736">
        <ele>1886.3511962891</ele>
        <time>2017-02-12T10:48:33Z</time>
      </trkpt>
      <trkpt lat="45.22548" lon="6.02739">
        <ele>1888.9045410156</ele>
        <time>2017-02-12T10:48:46Z</time>
      </trkpt>
      <trkpt lat="45.2254" lon="6.02748">
        <ele>1895.5531005859</ele>
        <time>2017-02-12T10:49:06Z</time>
      </trkpt>
      <trkpt lat="45.22544" lon="6.02748">
        <ele>1894.4289550781</ele>
        <time>2017-02-12T10:49:13Z</time>
      </trkpt>
      <trkpt lat="45.22557" lon="6.02757">
        <ele>1896.4556884766</ele>
        <time>2017-02-12T10:49:40Z</time>
      </trkpt>
      <trkpt lat="45.2255" lon="6.02764">
        <ele>1902.2297363281</ele>
        <time>2017-02-12T10:49:43Z</time>
      </trkpt>
      <trkpt lat="45.22539" lon="6.02773">
        <ele>1910.9127197266</ele>
        <time>2017-02-12T10:50:10Z</time>
      </trkpt>
      <trkpt lat="45.22532" lon="6.02776">
        <ele>1914.154296875</ele>
        <time>2017-02-12T10:50:25Z</time>
      </trkpt>
      <trkpt lat="45.22538" lon="6.02782">
        <ele>1916.3817138672</ele>
        <time>2017-02-12T10:50:32Z</time>
      </trkpt>
      <trkpt lat="45.22546" lon="6.02787">
        <ele>1918.1940917969</ele>
        <time>2017-02-12T10:50:50Z</time>
      </trkpt>
      <trkpt lat="45.22548" lon="6.02789">
        <ele>1919.6838378906</ele>
        <time>2017-02-12T10:50:59Z</time>
      </trkpt>
      <trkpt lat="45.2254" lon="6.02794">
        <ele>1923.6813964844</ele>
        <time>2017-02-12T10:51:02Z</time>
      </trkpt>
      <trkpt lat="45.22529" lon="6.028">
        <ele>1928.4086914062</ele>
        <time>2017-02-12T10:51:30Z</time>
      </trkpt>
      <trkpt lat="45.22518" lon="6.02805">
        <ele>1932.9011230469</ele>
        <time>2017-02-12T10:51:54Z</time>
      </trkpt>
      <trkpt lat="45.2252" lon="6.02808">
        <ele>1933.9912109375</ele>
        <time>2017-02-12T10:52:09Z</time>
      </trkpt>
      <trkpt lat="45.22529" lon="6.02814">
        <ele>1935.8903808594</ele>
        <time>2017-02-12T10:52:25Z</time>
      </trkpt>
      <trkpt lat="45.22518" lon="6.02821">
        <ele>1939.6962890625</ele>
        <time>2017-02-12T10:52:38Z</time>
      </trkpt>
      <trkpt lat="45.22514" lon="6.02821">
        <ele>1939.8790283203</ele>
        <time>2017-02-12T10:52:44Z</time>
      </trkpt>
      <trkpt lat="45.22505" lon="6.02823">
        <ele>1941.2023925781</ele>
        <time>2017-02-12T10:53:03Z</time>
      </trkpt>
      <trkpt lat="45.22501" lon="6.02827">
        <ele>1942.80859375</ele>
        <time>2017-02-12T10:53:12Z</time>
      </trkpt>
      <trkpt lat="45.22497" lon="6.0283">
        <ele>1944.2119140625</ele>
        <time>2017-02-12T10:53:21Z</time>
      </trkpt>
      <trkpt lat="45.22503" lon="6.02839">
        <ele>1947.1657714844</ele>
        <time>2017-02-12T10:53:39Z</time>
      </trkpt>
      <trkpt lat="45.22504" lon="6.02843">
        <ele>1948.7141113281</ele>
        <time>2017-02-12T10:53:45Z</time>
      </trkpt>
      <trkpt lat="45.2248" lon="6.02856">
        <ele>1955.5706787109</ele>
        <time>2017-02-12T10:54:26Z</time>
      </trkpt>
      <trkpt lat="45.22475" lon="6.02855">
        <ele>1955.8395996094</ele>
        <time>2017-02-12T10:54:38Z</time>
      </trkpt>
      <trkpt lat="45.22465" lon="6.02856">
        <ele>1956.4560546875</ele>
        <time>2017-02-12T10:54:45Z</time>
      </trkpt>
      <trkpt lat="45.22457" lon="6.02864">
        <ele>1959.3579101562</ele>
        <time>2017-02-12T10:55:03Z</time>
      </trkpt>
      <trkpt lat="45.2245" lon="6.02869">
        <ele>1962.3172607422</ele>
        <time>2017-02-12T10:55:09Z</time>
      </trkpt>
      <trkpt lat="45.22432" lon="6.02874">
        <ele>1966.0377197266</ele>
        <time>2017-02-12T10:55:39Z</time>
      </trkpt>
      <trkpt lat="45.22427" lon="6.02882">
        <ele>1970.1667480469</ele>
        <time>2017-02-12T10:55:53Z</time>
      </trkpt>
      <trkpt lat="45.22436" lon="6.02887">
        <ele>1972.2258300781</ele>
        <time>2017-02-12T10:56:14Z</time>
      </trkpt>
      <trkpt lat="45.2245" lon="6.02894">
        <ele>1974.7595214844</ele>
        <time>2017-02-12T10:56:37Z</time>
      </trkpt>
      <trkpt lat="45.22457" lon="6.02901">
        <ele>1977.2452392578</ele>
        <time>2017-02-12T10:56:50Z</time>
      </trkpt>
      <trkpt lat="45.22467" lon="6.02914">
        <ele>1981.4484863281</ele>
        <time>2017-02-12T10:57:15Z</time>
      </trkpt>
      <trkpt lat="45.22468" lon="6.02919">
        <ele>1983.2204589844</ele>
        <time>2017-02-12T10:57:23Z</time>
      </trkpt>
      <trkpt lat="45.2246" lon="6.02919">
        <ele>1983.9958496094</ele>
        <time>2017-02-12T10:57:35Z</time>
      </trkpt>
      <trkpt lat="45.22457" lon="6.02924">
        <ele>1985.7875976562</ele>
        <time>2017-02-12T10:57:45Z</time>
      </trkpt>
      <trkpt lat="45.2246" lon="6.0292">
        <ele>1984.4163818359</ele>
        <time>2017-02-12T10:58:23Z</time>
      </trkpt>
      <trkpt lat="45.22458" lon="6.02927">
        <ele>1986.8677978516</ele>
        <time>2017-02-12T10:58:31Z</time>
      </trkpt>
      <trkpt lat="45.22461" lon="6.02925">
        <ele>1985.7902832031</ele>
        <time>2017-02-12T10:58:36Z</time>
      </trkpt>
      <trkpt lat="45.22463" lon="6.02934">
        <ele>1988.1518554688</ele>
        <time>2017-02-12T10:58:46Z</time>
      </trkpt>
      <trkpt lat="45.2246" lon="6.02923">
        <ele>1985.3724365234</ele>
        <time>2017-02-12T10:59:03Z</time>
      </trkpt>
      <trkpt lat="45.22461" lon="6.02916">
        <ele>1983.1005859375</ele>
        <time>2017-02-12T10:59:06Z</time>
      </trkpt>
      <trkpt lat="45.22462" lon="6.02916">
        <ele>1982.9772949219</ele>
        <time>2017-02-12T10:59:11Z</time>
      </trkpt>
      <trkpt lat="45.22456" lon="6.0293">
        <ele>1987.9809570312</ele>
        <time>2017-02-12T10:59:29Z</time>
      </trkpt>
      <trkpt lat="45.22468" lon="6.02959">
        <ele>1994.5578613281</ele>
        <time>2017-02-12T10:59:57Z</time>
      </trkpt>
      <trkpt lat="45.2248" lon="6.02985">
        <ele>1999.1015625</ele>
        <time>2017-02-12T11:00:21Z</time>
      </trkpt>
      <trkpt lat="45.22485" lon="6.02993">
        <ele>1999.9649658203</ele>
        <time>2017-02-12T11:00:32Z</time>
      </trkpt>
      <trkpt lat="45.22489" lon="6.02996">
        <ele>1999.9666748047</ele>
        <time>2017-02-12T11:00:38Z</time>
      </trkpt>
      <trkpt lat="45.22551" lon="6.0304">
        <ele>2000.9107666016</ele>
        <time>2017-02-12T11:02:11Z</time>
      </trkpt>
      <trkpt lat="45.22558" lon="6.03055">
        <ele>2003.8829345703</ele>
        <time>2017-02-12T11:02:24Z</time>
      </trkpt>
      <trkpt lat="45.22563" lon="6.03063">
        <ele>2004.3361816406</ele>
        <time>2017-02-12T11:02:34Z</time>
      </trkpt>
      <trkpt lat="45.22578" lon="6.03081">
        <ele>2004.8977050781</ele>
        <time>2017-02-12T11:03:01Z</time>
      </trkpt>
      <trkpt lat="45.22586" lon="6.03092">
        <ele>2007.0244140625</ele>
        <time>2017-02-12T11:03:17Z</time>
      </trkpt>
      <trkpt lat="45.22592" lon="6.03093">
        <ele>2006.2236328125</ele>
        <time>2017-02-12T11:03:25Z</time>
      </trkpt>
      <trkpt lat="45.22616" lon="6.03088">
        <ele>2001.1134033203</ele>
        <time>2017-02-12T11:04:01Z</time>
      </trkpt>
      <trkpt lat="45.22617" lon="6.03088">
        <ele>2001.2037353516</ele>
        <time>2017-02-12T11:04:03Z</time>
      </trkpt>
      <trkpt lat="45.22626" lon="6.03083">
        <ele>2001.0711669922</ele>
        <time>2017-02-12T11:04:15Z</time>
      </trkpt>
      <trkpt lat="45.22634" lon="6.03078">
        <ele>2001.4847412109</ele>
        <time>2017-02-12T11:04:27Z</time>
      </trkpt>
      <trkpt lat="45.22647" lon="6.03076">
        <ele>2005.1457519531</ele>
        <time>2017-02-12T11:04:48Z</time>
      </trkpt>
      <trkpt lat="45.22652" lon="6.03074">
        <ele>2006.3131103516</ele>
        <time>2017-02-12T11:04:56Z</time>
      </trkpt>
      <trkpt lat="45.22663" lon="6.03063">
        <ele>2007.8923339844</ele>
        <time>2017-02-12T11:05:15Z</time>
      </trkpt>
      <trkpt lat="45.22665" lon="6.03062">
        <ele>2008.2631835938</ele>
        <time>2017-02-12T11:05:20Z</time>
      </trkpt>
      <trkpt lat="45.22668" lon="6.03063">
        <ele>2009.7817382812</ele>
        <time>2017-02-12T11:05:28Z</time>
      </trkpt>
      <trkpt lat="45.22668" lon="6.03071">
        <ele>2012.0158691406</ele>
        <time>2017-02-12T11:05:38Z</time>
      </trkpt>
      <trkpt lat="45.22676" lon="6.03074">
        <ele>2014.6140136719</ele>
        <time>2017-02-12T11:05:45Z</time>
      </trkpt>
      <trkpt lat="45.22677" lon="6.03074">
        <ele>2015.017578125</ele>
        <time>2017-02-12T11:05:51Z</time>
      </trkpt>
      <trkpt lat="45.22682" lon="6.03077">
        <ele>2017.0828857422</ele>
        <time>2017-02-12T11:05:54Z</time>
      </trkpt>
      <trkpt lat="45.22685" lon="6.03089">
        <ele>2021.1752929688</ele>
        <time>2017-02-12T11:06:14Z</time>
      </trkpt>
      <trkpt lat="45.22708" lon="6.03104">
        <ele>2030.0007324219</ele>
        <time>2017-02-12T11:07:03Z</time>
      </trkpt>
      <trkpt lat="45.22709" lon="6.03106">
        <ele>2030.3734130859</ele>
        <time>2017-02-12T11:07:06Z</time>
      </trkpt>
      <trkpt lat="45.22716" lon="6.03127">
        <ele>2035.3724365234</ele>
        <time>2017-02-12T11:07:36Z</time>
      </trkpt>
      <trkpt lat="45.22717" lon="6.03129">
        <ele>2035.8377685547</ele>
        <time>2017-02-12T11:07:39Z</time>
      </trkpt>
      <trkpt lat="45.22726" lon="6.03142">
        <ele>2040.4089355469</ele>
        <time>2017-02-12T11:08:04Z</time>
      </trkpt>
      <trkpt lat="45.22728" lon="6.03157">
        <ele>2045.4196777344</ele>
        <time>2017-02-12T11:08:20Z</time>
      </trkpt>
      <trkpt lat="45.22728" lon="6.0317">
        <ele>2049.5278320312</ele>
        <time>2017-02-12T11:08:38Z</time>
      </trkpt>
      <trkpt lat="45.22735" lon="6.03175">
        <ele>2052.5122070312</ele>
        <time>2017-02-12T11:08:56Z</time>
      </trkpt>
      <trkpt lat="45.22738" lon="6.03176">
        <ele>2053.3527832031</ele>
        <time>2017-02-12T11:09:03Z</time>
      </trkpt>
      <trkpt lat="45.22747" lon="6.03176">
        <ele>2055.1174316406</ele>
        <time>2017-02-12T11:09:07Z</time>
      </trkpt>
      <trkpt lat="45.22752" lon="6.03177">
        <ele>2056.0788574219</ele>
        <time>2017-02-12T11:09:16Z</time>
      </trkpt>
      <trkpt lat="45.22754" lon="6.03179">
        <ele>2056.9665527344</ele>
        <time>2017-02-12T11:09:22Z</time>
      </trkpt>
      <trkpt lat="45.22753" lon="6.03184">
        <ele>2057.68359375</ele>
        <time>2017-02-12T11:09:28Z</time>
      </trkpt>
      <trkpt lat="45.22746" lon="6.03215">
        <ele>2066.0695800781</ele>
        <time>2017-02-12T11:10:16Z</time>
      </trkpt>
      <trkpt lat="45.22748" lon="6.0322">
        <ele>2068.0642089844</ele>
        <time>2017-02-12T11:10:22Z</time>
      </trkpt>
      <trkpt lat="45.22749" lon="6.0322">
        <ele>2068.146484375</ele>
        <time>2017-02-12T11:10:27Z</time>
      </trkpt>
      <trkpt lat="45.22759" lon="6.03221">
        <ele>2069.9165039062</ele>
        <time>2017-02-12T11:10:47Z</time>
      </trkpt>
      <trkpt lat="45.22757" lon="6.03257">
        <ele>2085.771484375</ele>
        <time>2017-02-12T11:10:55Z</time>
      </trkpt>
      <trkpt lat="45.22752" lon="6.03263">
        <ele>2088.3713378906</ele>
        <time>2017-02-12T11:11:09Z</time>
      </trkpt>
      <trkpt lat="45.22759" lon="6.03266">
        <ele>2090.8308105469</ele>
        <time>2017-02-12T11:11:14Z</time>
      </trkpt>
      <trkpt lat="45.22764" lon="6.03267">
        <ele>2091.921875</ele>
        <time>2017-02-12T11:11:22Z</time>
      </trkpt>
      <trkpt lat="45.22765" lon="6.03267">
        <ele>2092.0703125</ele>
        <time>2017-02-12T11:11:24Z</time>
      </trkpt>
      <trkpt lat="45.22777" lon="6.03268">
        <ele>2094.1811523438</ele>
        <time>2017-02-12T11:11:45Z</time>
      </trkpt>
      <trkpt lat="45.2279" lon="6.03268">
        <ele>2096.2348632812</ele>
        <time>2017-02-12T11:12:13Z</time>
      </trkpt>
      <trkpt lat="45.22794" lon="6.03285">
        <ele>2106.07421875</ele>
        <time>2017-02-12T11:12:17Z</time>
      </trkpt>
      <trkpt lat="45.22806" lon="6.03284">
        <ele>2106.4460449219</ele>
        <time>2017-02-12T11:12:41Z</time>
      </trkpt>
      <trkpt lat="45.22807" lon="6.03282">
        <ele>2106.0419921875</ele>
        <time>2017-02-12T11:12:45Z</time>
      </trkpt>
      <trkpt lat="45.22816" lon="6.03271">
        <ele>2103.0043945312</ele>
        <time>2017-02-12T11:13:10Z</time>
      </trkpt>
      <trkpt lat="45.22827" lon="6.03275">
        <ele>2107.4733886719</ele>
        <time>2017-02-12T11:13:18Z</time>
      </trkpt>
      <trkpt lat="45.22829" lon="6.03272">
        <ele>2106.7504882812</ele>
        <time>2017-02-12T11:13:24Z</time>
      </trkpt>
      <trkpt lat="45.22832" lon="6.03264">
        <ele>2104.4033203125</ele>
        <time>2017-02-12T11:13:42Z</time>
      </trkpt>
      <trkpt lat="45.22834" lon="6.03262">
        <ele>2104.5397949219</ele>
        <time>2017-02-12T11:13:51Z</time>
      </trkpt>
      <trkpt lat="45.22842" lon="6.0327">
        <ele>2111.0095214844</ele>
        <time>2017-02-12T11:14:09Z</time>
      </trkpt>
      <trkpt lat="45.22851" lon="6.03278">
        <ele>2115.8327636719</ele>
        <time>2017-02-12T11:14:15Z</time>
      </trkpt>
      <trkpt lat="45.22859" lon="6.03285">
        <ele>2120.9318847656</ele>
        <time>2017-02-12T11:14:27Z</time>
      </trkpt>
      <trkpt lat="45.22863" lon="6.03287">
        <ele>2122.9868164062</ele>
        <time>2017-02-12T11:14:33Z</time>
      </trkpt>
      <trkpt lat="45.22871" lon="6.03291">
        <ele>2126.7807617188</ele>
        <time>2017-02-12T11:14:50Z</time>
      </trkpt>
      <trkpt lat="45.22873" lon="6.03292">
        <ele>2127.5791015625</ele>
        <time>2017-02-12T11:14:53Z</time>
      </trkpt>
      <trkpt lat="45.22876" lon="6.03298">
        <ele>2130.25</ele>
        <time>2017-02-12T11:15:08Z</time>
      </trkpt>
      <trkpt lat="45.22887" lon="6.03309">
        <ele>2135.8811035156</ele>
        <time>2017-02-12T11:15:36Z</time>
      </trkpt>
      <trkpt lat="45.22891" lon="6.03313">
        <ele>2138.0129394531</ele>
        <time>2017-02-12T11:15:46Z</time>
      </trkpt>
      <trkpt lat="45.22898" lon="6.03317">
        <ele>2139.9284667969</ele>
        <time>2017-02-12T11:16:01Z</time>
      </trkpt>
      <trkpt lat="45.22902" lon="6.03318">
        <ele>2140.5927734375</ele>
        <time>2017-02-12T11:16:10Z</time>
      </trkpt>
      <trkpt lat="45.22911" lon="6.0331">
        <ele>2139.4450683594</ele>
        <time>2017-02-12T11:16:32Z</time>
      </trkpt>
      <trkpt lat="45.22912" lon="6.0331">
        <ele>2139.6403808594</ele>
        <time>2017-02-12T11:16:35Z</time>
      </trkpt>
      <trkpt lat="45.22913" lon="6.03315">
        <ele>2141.0405273438</ele>
        <time>2017-02-12T11:16:44Z</time>
      </trkpt>
      <trkpt lat="45.22914" lon="6.03324">
        <ele>2143.3352050781</ele>
        <time>2017-02-12T11:17:00Z</time>
      </trkpt>
      <trkpt lat="45.2293" lon="6.03366">
        <ele>2162.333984375</ele>
        <time>2017-02-12T11:17:06Z</time>
      </trkpt>
      <trkpt lat="45.22929" lon="6.03367">
        <ele>2162.9313964844</ele>
        <time>2017-02-12T11:17:11Z</time>
      </trkpt>
      <trkpt lat="45.22931" lon="6.03393">
        <ele>2174.0336914062</ele>
        <time>2017-02-12T11:17:16Z</time>
      </trkpt>
      <trkpt lat="45.2294" lon="6.03396">
        <ele>2176.3012695312</ele>
        <time>2017-02-12T11:17:31Z</time>
      </trkpt>
      <trkpt lat="45.2294" lon="6.03398">
        <ele>2177.0275878906</ele>
        <time>2017-02-12T11:17:33Z</time>
      </trkpt>
      <trkpt lat="45.22945" lon="6.03407">
        <ele>2181.0603027344</ele>
        <time>2017-02-12T11:17:45Z</time>
      </trkpt>
      <trkpt lat="45.22947" lon="6.03411">
        <ele>2182.880859375</ele>
        <time>2017-02-12T11:17:51Z</time>
      </trkpt>
      <trkpt lat="45.22955" lon="6.03423">
        <ele>2187.0234375</ele>
        <time>2017-02-12T11:18:06Z</time>
      </trkpt>
      <trkpt lat="45.22958" lon="6.03425">
        <ele>2187.4377441406</ele>
        <time>2017-02-12T11:18:18Z</time>
      </trkpt>
      <trkpt lat="45.22969" lon="6.03428">
        <ele>2187.7121582031</ele>
        <time>2017-02-12T11:18:44Z</time>
      </trkpt>
      <trkpt lat="45.22974" lon="6.03432">
        <ele>2189.2392578125</ele>
        <time>2017-02-12T11:18:58Z</time>
      </trkpt>
      <trkpt lat="45.22978" lon="6.03435">
        <ele>2190.3325195312</ele>
        <time>2017-02-12T11:19:08Z</time>
      </trkpt>
      <trkpt lat="45.22984" lon="6.03449">
        <ele>2194.2807617188</ele>
        <time>2017-02-12T11:19:32Z</time>
      </trkpt>
      <trkpt lat="45.22999" lon="6.03461">
        <ele>2194.6450195312</ele>
        <time>2017-02-12T11:19:56Z</time>
      </trkpt>
      <trkpt lat="45.23005" lon="6.0348">
        <ele>2197.3928222656</ele>
        <time>2017-02-12T11:20:19Z</time>
      </trkpt>
      <trkpt lat="45.23013" lon="6.03494">
        <ele>2199.0727539062</ele>
        <time>2017-02-12T11:20:45Z</time>
      </trkpt>
      <trkpt lat="45.23021" lon="6.03502">
        <ele>2199.5590820312</ele>
        <time>2017-02-12T11:20:56Z</time>
      </trkpt>
      <trkpt lat="45.23024" lon="6.03516">
        <ele>2201.2583007812</ele>
        <time>2017-02-12T11:21:10Z</time>
      </trkpt>
      <trkpt lat="45.23018" lon="6.03547">
        <ele>2210.99609375</ele>
        <time>2017-02-12T11:21:51Z</time>
      </trkpt>
      <trkpt lat="45.23019" lon="6.03554">
        <ele>2213.3166503906</ele>
        <time>2017-02-12T11:22:04Z</time>
      </trkpt>
      <trkpt lat="45.23021" lon="6.03557">
        <ele>2214.140625</ele>
        <time>2017-02-12T11:22:14Z</time>
      </trkpt>
      <trkpt lat="45.23032" lon="6.03558">
        <ele>2214.4409179688</ele>
        <time>2017-02-12T11:22:40Z</time>
      </trkpt>
      <trkpt lat="45.2306" lon="6.03586">
        <ele>2230.07421875</ele>
        <time>2017-02-12T11:22:43Z</time>
      </trkpt>
      <trkpt lat="45.23073" lon="6.03571">
        <ele>2227.3852539062</ele>
        <time>2017-02-12T11:23:12Z</time>
      </trkpt>
      <trkpt lat="45.23081" lon="6.03558">
        <ele>2225.0122070312</ele>
        <time>2017-02-12T11:23:36Z</time>
      </trkpt>
      <trkpt lat="45.23082" lon="6.03557">
        <ele>2224.9758300781</ele>
        <time>2017-02-12T11:23:39Z</time>
      </trkpt>
      <trkpt lat="45.23088" lon="6.03546">
        <ele>2228.212890625</ele>
        <time>2017-02-12T11:23:59Z</time>
      </trkpt>
      <trkpt lat="45.23093" lon="6.03531">
        <ele>2231.9045410156</ele>
        <time>2017-02-12T11:24:27Z</time>
      </trkpt>
      <trkpt lat="45.23102" lon="6.03534">
        <ele>2237.6232910156</ele>
        <time>2017-02-12T11:24:34Z</time>
      </trkpt>
      <trkpt lat="45.23107" lon="6.03553">
        <ele>2240.9599609375</ele>
        <time>2017-02-12T11:25:03Z</time>
      </trkpt>
      <trkpt lat="45.23113" lon="6.03548">
        <ele>2245.0380859375</ele>
        <time>2017-02-12T11:25:08Z</time>
      </trkpt>
      <trkpt lat="45.23116" lon="6.03544">
        <ele>2247.603515625</ele>
        <time>2017-02-12T11:25:17Z</time>
      </trkpt>
      <trkpt lat="45.23119" lon="6.03532">
        <ele>2249.9638671875</ele>
        <time>2017-02-12T11:25:34Z</time>
      </trkpt>
      <trkpt lat="45.23127" lon="6.03539">
        <ele>2256.03515625</ele>
        <time>2017-02-12T11:25:40Z</time>
      </trkpt>
      <trkpt lat="45.23128" lon="6.03542">
        <ele>2256.9182128906</ele>
        <time>2017-02-12T11:25:46Z</time>
      </trkpt>
      <trkpt lat="45.23132" lon="6.03565">
        <ele>2261.2768554688</ele>
        <time>2017-02-12T11:26:12Z</time>
      </trkpt>
      <trkpt lat="45.23132" lon="6.03593">
        <ele>2273.2248535156</ele>
        <time>2017-02-12T11:26:41Z</time>
      </trkpt>
      <trkpt lat="45.23145" lon="6.03611">
        <ele>2286.1252441406</ele>
        <time>2017-02-12T11:27:12Z</time>
      </trkpt>
      <trkpt lat="45.23146" lon="6.03615">
        <ele>2285.5124511719</ele>
        <time>2017-02-12T11:27:18Z</time>
      </trkpt>
      <trkpt lat="45.23146" lon="6.03618">
        <ele>2285.2917480469</ele>
        <time>2017-02-12T11:27:22Z</time>
      </trkpt>
      <trkpt lat="45.23143" lon="6.03624">
        <ele>2285.166015625</ele>
        <time>2017-02-12T11:27:29Z</time>
      </trkpt>
      <trkpt lat="45.2314" lon="6.03627">
        <ele>2285.1982421875</ele>
        <time>2017-02-12T11:27:35Z</time>
      </trkpt>
      <trkpt lat="45.23143" lon="6.03626">
        <ele>2284.8576660156</ele>
        <time>2017-02-12T11:27:43Z</time>
      </trkpt>
      <trkpt lat="45.23135" lon="6.0363">
        <ele>2282.8903808594</ele>
        <time>2017-02-12T11:27:48Z</time>
      </trkpt>
      <trkpt lat="45.23132" lon="6.03634">
        <ele>2280.7329101562</ele>
        <time>2017-02-12T11:27:55Z</time>
      </trkpt>
      <trkpt lat="45.2313" lon="6.03649">
        <ele>2276.3171386719</ele>
        <time>2017-02-12T11:27:58Z</time>
      </trkpt>
      <trkpt lat="45.23132" lon="6.03694">
        <ele>2264.2944335938</ele>
        <time>2017-02-12T11:28:04Z</time>
      </trkpt>
      <trkpt lat="45.23133" lon="6.03737">
        <ele>2253.109375</ele>
        <time>2017-02-12T11:28:08Z</time>
      </trkpt>
      <trkpt lat="45.2313" lon="6.03778">
        <ele>2243.0729980469</ele>
        <time>2017-02-12T11:28:12Z</time>
      </trkpt>
      <trkpt lat="45.23123" lon="6.03797">
        <ele>2238.8342285156</ele>
        <time>2017-02-12T11:28:14Z</time>
      </trkpt>
      <trkpt lat="45.23113" lon="6.0382">
        <ele>2232.9267578125</ele>
        <time>2017-02-12T11:28:18Z</time>
      </trkpt>
      <trkpt lat="45.23108" lon="6.03828">
        <ele>2230.513671875</ele>
        <time>2017-02-12T11:28:20Z</time>
      </trkpt>
      <trkpt lat="45.23104" lon="6.0383">
        <ele>2230.087890625</ele>
        <time>2017-02-12T11:28:22Z</time>
      </trkpt>
      <trkpt lat="45.23108" lon="6.03837">
        <ele>2228.2094726562</ele>
        <time>2017-02-12T11:28:26Z</time>
      </trkpt>
      <trkpt lat="45.23106" lon="6.03838">
        <ele>2227.8879394531</ele>
        <time>2017-02-12T11:28:28Z</time>
      </trkpt>
      <trkpt lat="45.23104" lon="6.03839">
        <ele>2227.8200683594</ele>
        <time>2017-02-12T11:28:39Z</time>
      </trkpt>
      <trkpt lat="45.23104" lon="6.03835">
        <ele>2228.9147949219</ele>
        <time>2017-02-12T11:28:46Z</time>
      </trkpt>
      <trkpt lat="45.231" lon="6.03834">
        <ele>2229.1096191406</ele>
        <time>2017-02-12T11:29:00Z</time>
      </trkpt>
      <trkpt lat="45.23095" lon="6.03834">
        <ele>2229.3195800781</ele>
        <time>2017-02-12T11:29:03Z</time>
      </trkpt>
      <trkpt lat="45.23089" lon="6.03837">
        <ele>2228.8620605469</ele>
        <time>2017-02-12T11:29:05Z</time>
      </trkpt>
      <trkpt lat="45.23086" lon="6.03849">
        <ele>2225.4487304688</ele>
        <time>2017-02-12T11:29:07Z</time>
      </trkpt>
      <trkpt lat="45.23069" lon="6.03887">
        <ele>2208.8591308594</ele>
        <time>2017-02-12T11:29:13Z</time>
      </trkpt>
      <trkpt lat="45.23062" lon="6.03897">
        <ele>2200.0983886719</ele>
        <time>2017-02-12T11:29:15Z</time>
      </trkpt>
      <trkpt lat="45.23057" lon="6.03898">
        <ele>2197.0935058594</ele>
        <time>2017-02-12T11:29:17Z</time>
      </trkpt>
      <trkpt lat="45.23056" lon="6.03902">
        <ele>2193.4291992188</ele>
        <time>2017-02-12T11:29:19Z</time>
      </trkpt>
      <trkpt lat="45.23051" lon="6.03917">
        <ele>2180.9079589844</ele>
        <time>2017-02-12T11:29:23Z</time>
      </trkpt>
      <trkpt lat="45.23049" lon="6.03926">
        <ele>2175.87109375</ele>
        <time>2017-02-12T11:29:25Z</time>
      </trkpt>
      <trkpt lat="45.23037" lon="6.03936">
        <ele>2167.4782714844</ele>
        <time>2017-02-12T11:29:29Z</time>
      </trkpt>
      <trkpt lat="45.23029" lon="6.03943">
        <ele>2161.1665039062</ele>
        <time>2017-02-12T11:29:31Z</time>
      </trkpt>
      <trkpt lat="45.23021" lon="6.03954">
        <ele>2157.2534179688</ele>
        <time>2017-02-12T11:29:35Z</time>
      </trkpt>
      <trkpt lat="45.23015" lon="6.03968">
        <ele>2153.1608886719</ele>
        <time>2017-02-12T11:29:39Z</time>
      </trkpt>
      <trkpt lat="45.2302" lon="6.03973">
        <ele>2151.69140625</ele>
        <time>2017-02-12T11:29:41Z</time>
      </trkpt>
      <trkpt lat="45.23023" lon="6.03974">
        <ele>2151.3481445312</ele>
        <time>2017-02-12T11:29:43Z</time>
      </trkpt>
      <trkpt lat="45.23023" lon="6.03979">
        <ele>2149.90625</ele>
        <time>2017-02-12T11:29:45Z</time>
      </trkpt>
      <trkpt lat="45.22997" lon="6.03993">
        <ele>2146.5478515625</ele>
        <time>2017-02-12T11:29:51Z</time>
      </trkpt>
      <trkpt lat="45.22992" lon="6.03991">
        <ele>2147.5883789062</ele>
        <time>2017-02-12T11:29:53Z</time>
      </trkpt>
      <trkpt lat="45.22992" lon="6.03987">
        <ele>2148.8615722656</ele>
        <time>2017-02-12T11:29:57Z</time>
      </trkpt>
      <trkpt lat="45.2298" lon="6.0398">
        <ele>2153.2729492188</ele>
        <time>2017-02-12T11:30:07Z</time>
      </trkpt>
      <trkpt lat="45.22978" lon="6.03979">
        <ele>2154.2468261719</ele>
        <time>2017-02-12T11:30:13Z</time>
      </trkpt>
      <trkpt lat="45.22985" lon="6.03986">
        <ele>2150.5297851562</ele>
        <time>2017-02-12T11:30:18Z</time>
      </trkpt>
      <trkpt lat="45.22986" lon="6.03988">
        <ele>2149.6589355469</ele>
        <time>2017-02-12T11:30:21Z</time>
      </trkpt>
      <trkpt lat="45.22985" lon="6.03997">
        <ele>2146.6525878906</ele>
        <time>2017-02-12T11:30:23Z</time>
      </trkpt>
      <trkpt lat="45.22983" lon="6.04034">
        <ele>2131.1215820312</ele>
        <time>2017-02-12T11:30:27Z</time>
      </trkpt>
      <trkpt lat="45.22978" lon="6.04048">
        <ele>2124.3891601562</ele>
        <time>2017-02-12T11:30:29Z</time>
      </trkpt>
      <trkpt lat="45.22962" lon="6.04088">
        <ele>2108.1691894531</ele>
        <time>2017-02-12T11:30:37Z</time>
      </trkpt>
      <trkpt lat="45.22951" lon="6.0409">
        <ele>2102.80859375</ele>
        <time>2017-02-12T11:30:39Z</time>
      </trkpt>
      <trkpt lat="45.22939" lon="6.04087">
        <ele>2098.4079589844</ele>
        <time>2017-02-12T11:30:41Z</time>
      </trkpt>
      <trkpt lat="45.22917" lon="6.04077">
        <ele>2093.9025878906</ele>
        <time>2017-02-12T11:30:45Z</time>
      </trkpt>
      <trkpt lat="45.22895" lon="6.04063">
        <ele>2090.380859375</ele>
        <time>2017-02-12T11:30:49Z</time>
      </trkpt>
      <trkpt lat="45.22888" lon="6.04058">
        <ele>2088.5</ele>
        <time>2017-02-12T11:30:51Z</time>
      </trkpt>
      <trkpt lat="45.22872" lon="6.04046">
        <ele>2086.951171875</ele>
        <time>2017-02-12T11:30:58Z</time>
      </trkpt>
      <trkpt lat="45.22864" lon="6.04039">
        <ele>2085.0861816406</ele>
        <time>2017-02-12T11:31:00Z</time>
      </trkpt>
      <trkpt lat="45.2283" lon="6.04014">
        <ele>2078.8662109375</ele>
        <time>2017-02-12T11:31:06Z</time>
      </trkpt>
      <trkpt lat="45.22808" lon="6.03994">
        <ele>2070.8168945312</ele>
        <time>2017-02-12T11:31:10Z</time>
      </trkpt>
      <trkpt lat="45.228" lon="6.03985">
        <ele>2068.4521484375</ele>
        <time>2017-02-12T11:31:12Z</time>
      </trkpt>
      <trkpt lat="45.22794" lon="6.0398">
        <ele>2066.0373535156</ele>
        <time>2017-02-12T11:31:14Z</time>
      </trkpt>
      <trkpt lat="45.22781" lon="6.03971">
        <ele>2059.91015625</ele>
        <time>2017-02-12T11:31:18Z</time>
      </trkpt>
      <trkpt lat="45.22775" lon="6.03967">
        <ele>2057.1359863281</ele>
        <time>2017-02-12T11:31:20Z</time>
      </trkpt>
      <trkpt lat="45.22771" lon="6.03968">
        <ele>2054.5402832031</ele>
        <time>2017-02-12T11:31:29Z</time>
      </trkpt>
      <trkpt lat="45.22768" lon="6.03956">
        <ele>2053.8479003906</ele>
        <time>2017-02-12T11:31:33Z</time>
      </trkpt>
      <trkpt lat="45.22764" lon="6.03951">
        <ele>2051.693359375</ele>
        <time>2017-02-12T11:31:35Z</time>
      </trkpt>
      <trkpt lat="45.22731" lon="6.03942">
        <ele>2034.3970947266</ele>
        <time>2017-02-12T11:31:46Z</time>
      </trkpt>
      <trkpt lat="45.22719" lon="6.03938">
        <ele>2029.1981201172</ele>
        <time>2017-02-12T11:31:48Z</time>
      </trkpt>
      <trkpt lat="45.22721" lon="6.03935">
        <ele>2030.6243896484</ele>
        <time>2017-02-12T11:31:52Z</time>
      </trkpt>
      <trkpt lat="45.22721" lon="6.03933">
        <ele>2030.8166503906</ele>
        <time>2017-02-12T11:31:56Z</time>
      </trkpt>
      <trkpt lat="45.22723" lon="6.03926">
        <ele>2032.2322998047</ele>
        <time>2017-02-12T11:31:59Z</time>
      </trkpt>
      <trkpt lat="45.22726" lon="6.03924">
        <ele>2034.0653076172</ele>
        <time>2017-02-12T11:32:06Z</time>
      </trkpt>
      <trkpt lat="45.22709" lon="6.03912">
        <ele>2026.5002441406</ele>
        <time>2017-02-12T11:32:10Z</time>
      </trkpt>
      <trkpt lat="45.22694" lon="6.03898">
        <ele>2019.1315917969</ele>
        <time>2017-02-12T11:32:14Z</time>
      </trkpt>
      <trkpt lat="45.22676" lon="6.03878">
        <ele>2012.8240966797</ele>
        <time>2017-02-12T11:32:18Z</time>
      </trkpt>
      <trkpt lat="45.22657" lon="6.03863">
        <ele>2005.6491699219</ele>
        <time>2017-02-12T11:32:22Z</time>
      </trkpt>
      <trkpt lat="45.22651" lon="6.03857">
        <ele>2003.0278320312</ele>
        <time>2017-02-12T11:32:24Z</time>
      </trkpt>
      <trkpt lat="45.22601" lon="6.03794">
        <ele>1988.3404541016</ele>
        <time>2017-02-12T11:32:40Z</time>
      </trkpt>
      <trkpt lat="45.22568" lon="6.03758">
        <ele>1982.3735351562</ele>
        <time>2017-02-12T11:32:49Z</time>
      </trkpt>
      <trkpt lat="45.22567" lon="6.03757">
        <ele>1982.1009521484</ele>
        <time>2017-02-12T11:32:52Z</time>
      </trkpt>
      <trkpt lat="45.22561" lon="6.03762">
        <ele>1976.9621582031</ele>
        <time>2017-02-12T11:33:00Z</time>
      </trkpt>
      <trkpt lat="45.22564" lon="6.03762">
        <ele>1978.3231201172</ele>
        <time>2017-02-12T11:33:04Z</time>
      </trkpt>
      <trkpt lat="45.22567" lon="6.03763">
        <ele>1980.0280761719</ele>
        <time>2017-02-12T11:33:12Z</time>
      </trkpt>
      <trkpt lat="45.2256" lon="6.03761">
        <ele>1976.9173583984</ele>
        <time>2017-02-12T11:33:15Z</time>
      </trkpt>
      <trkpt lat="45.22557" lon="6.03758">
        <ele>1976.4304199219</ele>
        <time>2017-02-12T11:33:20Z</time>
      </trkpt>
      <trkpt lat="45.22552" lon="6.03756">
        <ele>1975.1475830078</ele>
        <time>2017-02-12T11:33:22Z</time>
      </trkpt>
      <trkpt lat="45.22533" lon="6.03746">
        <ele>1969.8452148438</ele>
        <time>2017-02-12T11:33:27Z</time>
      </trkpt>
      <trkpt lat="45.22509" lon="6.03728">
        <ele>1963.6573486328</ele>
        <time>2017-02-12T11:33:35Z</time>
      </trkpt>
      <trkpt lat="45.22498" lon="6.03718">
        <ele>1960.6628417969</ele>
        <time>2017-02-12T11:33:39Z</time>
      </trkpt>
      <trkpt lat="45.22478" lon="6.03695">
        <ele>1956.6711425781</ele>
        <time>2017-02-12T11:33:48Z</time>
      </trkpt>
      <trkpt lat="45.22454" lon="6.03662">
        <ele>1954.5476074219</ele>
        <time>2017-02-12T11:33:59Z</time>
      </trkpt>
      <trkpt lat="45.22441" lon="6.03649">
        <ele>1951.4075927734</ele>
        <time>2017-02-12T11:34:05Z</time>
      </trkpt>
      <trkpt lat="45.2244" lon="6.03647">
        <ele>1951.0201416016</ele>
        <time>2017-02-12T11:34:07Z</time>
      </trkpt>
      <trkpt lat="45.22434" lon="6.03652">
        <ele>1945.6292724609</ele>
        <time>2017-02-12T11:34:13Z</time>
      </trkpt>
      <trkpt lat="45.22424" lon="6.03647">
        <ele>1940.7249755859</ele>
        <time>2017-02-12T11:34:31Z</time>
      </trkpt>
      <trkpt lat="45.22391" lon="6.03612">
        <ele>1945.2283935547</ele>
        <time>2017-02-12T11:34:41Z</time>
      </trkpt>
      <trkpt lat="45.22377" lon="6.03601">
        <ele>1945.8811035156</ele>
        <time>2017-02-12T11:34:46Z</time>
      </trkpt>
      <trkpt lat="45.22359" lon="6.03584">
        <ele>1945.5908203125</ele>
        <time>2017-02-12T11:35:02Z</time>
      </trkpt>
      <trkpt lat="45.22345" lon="6.03576">
        <ele>1943.8131103516</ele>
        <time>2017-02-12T11:35:09Z</time>
      </trkpt>
      <trkpt lat="45.22324" lon="6.03561">
        <ele>1945.6759033203</ele>
        <time>2017-02-12T11:35:18Z</time>
      </trkpt>
      <trkpt lat="45.22294" lon="6.03548">
        <ele>1948.6807861328</ele>
        <time>2017-02-12T11:35:28Z</time>
      </trkpt>
      <trkpt lat="45.22262" lon="6.03545">
        <ele>1944.103515625</ele>
        <time>2017-02-12T11:35:44Z</time>
      </trkpt>
      <trkpt lat="45.22222" lon="6.03536">
        <ele>1936.453125</ele>
        <time>2017-02-12T11:36:04Z</time>
      </trkpt>
      <trkpt lat="45.22198" lon="6.03532">
        <ele>1938.0510253906</ele>
        <time>2017-02-12T11:36:09Z</time>
      </trkpt>
      <trkpt lat="45.2213" lon="6.03539">
        <ele>1931.8391113281</ele>
        <time>2017-02-12T11:36:22Z</time>
      </trkpt>
      <trkpt lat="45.22129" lon="6.03538">
        <ele>1932.1048583984</ele>
        <time>2017-02-12T11:36:34Z</time>
      </trkpt>
      <trkpt lat="45.22119" lon="6.03532">
        <ele>1932.8465576172</ele>
        <time>2017-02-12T11:36:36Z</time>
      </trkpt>
      <trkpt lat="45.22131" lon="6.03541">
        <ele>1931.2858886719</ele>
        <time>2017-02-12T11:36:51Z</time>
      </trkpt>
      <trkpt lat="45.22124" lon="6.03537">
        <ele>1931.6678466797</ele>
        <time>2017-02-12T11:37:04Z</time>
      </trkpt>
      <trkpt lat="45.2212" lon="6.03531">
        <ele>1933.1124267578</ele>
        <time>2017-02-12T11:37:14Z</time>
      </trkpt>
      <trkpt lat="45.22106" lon="6.03516">
        <ele>1936.3970947266</ele>
        <time>2017-02-12T11:37:41Z</time>
      </trkpt>
      <trkpt lat="45.22099" lon="6.03506">
        <ele>1940.1097412109</ele>
        <time>2017-02-12T11:37:59Z</time>
      </trkpt>
      <trkpt lat="45.22086" lon="6.03488">
        <ele>1948.7915039062</ele>
        <time>2017-02-12T11:38:33Z</time>
      </trkpt>
      <trkpt lat="45.22066" lon="6.03476">
        <ele>1958.6148681641</ele>
        <time>2017-02-12T11:39:17Z</time>
      </trkpt>
      <trkpt lat="45.22041" lon="6.03449">
        <ele>1973.2553710938</ele>
        <time>2017-02-12T11:40:18Z</time>
      </trkpt>
      <trkpt lat="45.22041" lon="6.03442">
        <ele>1976.3980712891</ele>
        <time>2017-02-12T11:40:30Z</time>
      </trkpt>
      <trkpt lat="45.22043" lon="6.03435">
        <ele>1978.7368164062</ele>
        <time>2017-02-12T11:40:33Z</time>
      </trkpt>
      <trkpt lat="45.22052" lon="6.03422">
        <ele>1981.6225585938</ele>
        <time>2017-02-12T11:40:58Z</time>
      </trkpt>
      <trkpt lat="45.22043" lon="6.03414">
        <ele>1987.8238525391</ele>
        <time>2017-02-12T11:41:01Z</time>
      </trkpt>
      <trkpt lat="45.22039" lon="6.03411">
        <ele>1990.3526611328</ele>
        <time>2017-02-12T11:41:09Z</time>
      </trkpt>
      <trkpt lat="45.22044" lon="6.03394">
        <ele>1993.8895263672</ele>
        <time>2017-02-12T11:41:15Z</time>
      </trkpt>
      <trkpt lat="45.22047" lon="6.03386">
        <ele>1994.8852539062</ele>
        <time>2017-02-12T11:41:31Z</time>
      </trkpt>
      <trkpt lat="45.22034" lon="6.03376">
        <ele>2003.4305419922</ele>
        <time>2017-02-12T11:41:43Z</time>
      </trkpt>
      <trkpt lat="45.2203" lon="6.03375">
        <ele>2005.5162353516</ele>
        <time>2017-02-12T11:41:52Z</time>
      </trkpt>
      <trkpt lat="45.22039" lon="6.0335">
        <ele>2009.2574462891</ele>
        <time>2017-02-12T11:42:03Z</time>
      </trkpt>
      <trkpt lat="45.22023" lon="6.03347">
        <ele>2016.8645019531</ele>
        <time>2017-02-12T11:42:27Z</time>
      </trkpt>
      <trkpt lat="45.22009" lon="6.03348">
        <ele>2023.1138916016</ele>
        <time>2017-02-12T11:42:55Z</time>
      </trkpt>
      <trkpt lat="45.21997" lon="6.03353">
        <ele>2026.5938720703</ele>
        <time>2017-02-12T11:43:06Z</time>
      </trkpt>
      <trkpt lat="45.21994" lon="6.03344">
        <ele>2028.5931396484</ele>
        <time>2017-02-12T11:43:20Z</time>
      </trkpt>
      <trkpt lat="45.21987" lon="6.03342">
        <ele>2029.8843994141</ele>
        <time>2017-02-12T11:43:27Z</time>
      </trkpt>
      <trkpt lat="45.21986" lon="6.03343">
        <ele>2029.5477294922</ele>
        <time>2017-02-12T11:43:30Z</time>
      </trkpt>
      <trkpt lat="45.21976" lon="6.03358">
        <ele>2025.3923339844</ele>
        <time>2017-02-12T11:43:57Z</time>
      </trkpt>
      <trkpt lat="45.21975" lon="6.03361">
        <ele>2024.2393798828</ele>
        <time>2017-02-12T11:44:02Z</time>
      </trkpt>
      <trkpt lat="45.21972" lon="6.03361">
        <ele>2023.716796875</ele>
        <time>2017-02-12T11:44:07Z</time>
      </trkpt>
      <trkpt lat="45.2197" lon="6.03358">
        <ele>2024.4841308594</ele>
        <time>2017-02-12T11:44:11Z</time>
      </trkpt>
      <trkpt lat="45.21969" lon="6.03347">
        <ele>2027.9895019531</ele>
        <time>2017-02-12T11:44:22Z</time>
      </trkpt>
      <trkpt lat="45.21972" lon="6.03323">
        <ele>2037.5073242188</ele>
        <time>2017-02-12T11:44:51Z</time>
      </trkpt>
      <trkpt lat="45.21966" lon="6.03314">
        <ele>2038.7541503906</ele>
        <time>2017-02-12T11:45:06Z</time>
      </trkpt>
      <trkpt lat="45.21959" lon="6.03305">
        <ele>2041.6416015625</ele>
        <time>2017-02-12T11:45:23Z</time>
      </trkpt>
      <trkpt lat="45.21949" lon="6.03287">
        <ele>2043.8800048828</ele>
        <time>2017-02-12T11:45:47Z</time>
      </trkpt>
      <trkpt lat="45.21942" lon="6.03275">
        <ele>2043.3680419922</ele>
        <time>2017-02-12T11:46:08Z</time>
      </trkpt>
      <trkpt lat="45.21935" lon="6.03244">
        <ele>2042.0572509766</ele>
        <time>2017-02-12T11:46:27Z</time>
      </trkpt>
      <trkpt lat="45.21935" lon="6.03221">
        <ele>2046.2196044922</ele>
        <time>2017-02-12T11:46:53Z</time>
      </trkpt>
      <trkpt lat="45.21932" lon="6.03212">
        <ele>2045.1602783203</ele>
        <time>2017-02-12T11:47:03Z</time>
      </trkpt>
      <trkpt lat="45.21929" lon="6.03207">
        <ele>2044.4107666016</ele>
        <time>2017-02-12T11:47:13Z</time>
      </trkpt>
      <trkpt lat="45.21901" lon="6.0314">
        <ele>2039.05078125</ele>
        <time>2017-02-12T11:47:39Z</time>
      </trkpt>
      <trkpt lat="45.21893" lon="6.03123">
        <ele>2039.4438476562</ele>
        <time>2017-02-12T11:47:51Z</time>
      </trkpt>
      <trkpt lat="45.21887" lon="6.03104">
        <ele>2038.8176269531</ele>
        <time>2017-02-12T11:48:05Z</time>
      </trkpt>
      <trkpt lat="45.21885" lon="6.03096">
        <ele>2036.8505859375</ele>
        <time>2017-02-12T11:48:13Z</time>
      </trkpt>
      <trkpt lat="45.21884" lon="6.03093">
        <ele>2036.2574462891</ele>
        <time>2017-02-12T11:48:18Z</time>
      </trkpt>
      <trkpt lat="45.21883" lon="6.03077">
        <ele>2035.6728515625</ele>
        <time>2017-02-12T11:48:23Z</time>
      </trkpt>
      <trkpt lat="45.21882" lon="6.03073">
        <ele>2035.2592773438</ele>
        <time>2017-02-12T11:48:26Z</time>
      </trkpt>
      <trkpt lat="45.21881" lon="6.03071">
        <ele>2034.7098388672</ele>
        <time>2017-02-12T11:48:31Z</time>
      </trkpt>
      <trkpt lat="45.21879" lon="6.03066">
        <ele>2033.2218017578</ele>
        <time>2017-02-12T11:48:35Z</time>
      </trkpt>
      <trkpt lat="45.21875" lon="6.03064">
        <ele>2029.8463134766</ele>
        <time>2017-02-12T11:48:40Z</time>
      </trkpt>
      <trkpt lat="45.21863" lon="6.03071">
        <ele>2019.3970947266</ele>
        <time>2017-02-12T11:48:45Z</time>
      </trkpt>
      <trkpt lat="45.21834" lon="6.0307">
        <ele>2007.2532958984</ele>
        <time>2017-02-12T11:48:52Z</time>
      </trkpt>
      <trkpt lat="45.21827" lon="6.03064">
        <ele>2003.0964355469</ele>
        <time>2017-02-12T11:48:54Z</time>
      </trkpt>
      <trkpt lat="45.2182" lon="6.03013">
        <ele>1996.1633300781</ele>
        <time>2017-02-12T11:49:00Z</time>
      </trkpt>
      <trkpt lat="45.21807" lon="6.02998">
        <ele>1989.6724853516</ele>
        <time>2017-02-12T11:49:07Z</time>
      </trkpt>
      <trkpt lat="45.21798" lon="6.02992">
        <ele>1986.2261962891</ele>
        <time>2017-02-12T11:49:09Z</time>
      </trkpt>
      <trkpt lat="45.21796" lon="6.02983">
        <ele>1985.2589111328</ele>
        <time>2017-02-12T11:49:11Z</time>
      </trkpt>
      <trkpt lat="45.218" lon="6.02972">
        <ele>1985.3837890625</ele>
        <time>2017-02-12T11:49:16Z</time>
      </trkpt>
      <trkpt lat="45.21802" lon="6.02935">
        <ele>1983.6181640625</ele>
        <time>2017-02-12T11:49:21Z</time>
      </trkpt>
      <trkpt lat="45.21812" lon="6.02901">
        <ele>1981.5356445312</ele>
        <time>2017-02-12T11:49:26Z</time>
      </trkpt>
      <trkpt lat="45.21806" lon="6.02849">
        <ele>1977.1422119141</ele>
        <time>2017-02-12T11:49:35Z</time>
      </trkpt>
      <trkpt lat="45.21806" lon="6.02825">
        <ele>1975.8146972656</ele>
        <time>2017-02-12T11:49:37Z</time>
      </trkpt>
      <trkpt lat="45.21826" lon="6.0275">
        <ele>1965.7847900391</ele>
        <time>2017-02-12T11:49:44Z</time>
      </trkpt>
      <trkpt lat="45.21838" lon="6.02664">
        <ele>1966.3051757812</ele>
        <time>2017-02-12T11:49:51Z</time>
      </trkpt>
      <trkpt lat="45.21842" lon="6.02627">
        <ele>1960.9195556641</ele>
        <time>2017-02-12T11:49:55Z</time>
      </trkpt>
      <trkpt lat="45.21849" lon="6.02596">
        <ele>1953.8571777344</ele>
        <time>2017-02-12T11:49:59Z</time>
      </trkpt>
      <trkpt lat="45.21854" lon="6.02586">
        <ele>1947.2163085938</ele>
        <time>2017-02-12T11:50:01Z</time>
      </trkpt>
      <trkpt lat="45.21864" lon="6.02594">
        <ele>1940.2634277344</ele>
        <time>2017-02-12T11:50:06Z</time>
      </trkpt>
      <trkpt lat="45.21878" lon="6.02597">
        <ele>1945.2569580078</ele>
        <time>2017-02-12T11:50:09Z</time>
      </trkpt>
      <trkpt lat="45.21883" lon="6.02594">
        <ele>1945.8706054688</ele>
        <time>2017-02-12T11:50:11Z</time>
      </trkpt>
      <trkpt lat="45.21883" lon="6.02589">
        <ele>1943.5772705078</ele>
        <time>2017-02-12T11:50:14Z</time>
      </trkpt>
      <trkpt lat="45.21888" lon="6.02589">
        <ele>1944.5853271484</ele>
        <time>2017-02-12T11:50:16Z</time>
      </trkpt>
      <trkpt lat="45.21906" lon="6.02603">
        <ele>1945.3059082031</ele>
        <time>2017-02-12T11:50:24Z</time>
      </trkpt>
      <trkpt lat="45.21913" lon="6.02612">
        <ele>1947.0073242188</ele>
        <time>2017-02-12T11:50:29Z</time>
      </trkpt>
      <trkpt lat="45.21922" lon="6.02631">
        <ele>1951.0008544922</ele>
        <time>2017-02-12T11:50:35Z</time>
      </trkpt>
      <trkpt lat="45.21928" lon="6.02631">
        <ele>1946.7121582031</ele>
        <time>2017-02-12T11:50:37Z</time>
      </trkpt>
      <trkpt lat="45.21926" lon="6.02626">
        <ele>1945.548828125</ele>
        <time>2017-02-12T11:50:39Z</time>
      </trkpt>
      <trkpt lat="45.21925" lon="6.02624">
        <ele>1945.5579833984</ele>
        <time>2017-02-12T11:50:44Z</time>
      </trkpt>
      <trkpt lat="45.21917" lon="6.02597">
        <ele>1938.2614746094</ele>
        <time>2017-02-12T11:50:48Z</time>
      </trkpt>
      <trkpt lat="45.21911" lon="6.02587">
        <ele>1936.2595214844</ele>
        <time>2017-02-12T11:50:50Z</time>
      </trkpt>
      <trkpt lat="45.21903" lon="6.02575">
        <ele>1934.0333251953</ele>
        <time>2017-02-12T11:50:54Z</time>
      </trkpt>
      <trkpt lat="45.21902" lon="6.02572">
        <ele>1933.166015625</ele>
        <time>2017-02-12T11:51:02Z</time>
      </trkpt>
      <trkpt lat="45.21903" lon="6.02574">
        <ele>1933.3521728516</ele>
        <time>2017-02-12T11:51:07Z</time>
      </trkpt>
      <trkpt lat="45.21917" lon="6.02539">
        <ele>1913.3865966797</ele>
        <time>2017-02-12T11:51:13Z</time>
      </trkpt>
      <trkpt lat="45.21917" lon="6.02528">
        <ele>1907.5762939453</ele>
        <time>2017-02-12T11:51:15Z</time>
      </trkpt>
      <trkpt lat="45.21916" lon="6.02527">
        <ele>1908.2338867188</ele>
        <time>2017-02-12T11:51:17Z</time>
      </trkpt>
      <trkpt lat="45.21915" lon="6.02529">
        <ele>1909.1851806641</ele>
        <time>2017-02-12T11:51:21Z</time>
      </trkpt>
      <trkpt lat="45.21918" lon="6.02519">
        <ele>1903.9208984375</ele>
        <time>2017-02-12T11:51:23Z</time>
      </trkpt>
      <trkpt lat="45.21914" lon="6.02487">
        <ele>1893.2169189453</ele>
        <time>2017-02-12T11:51:27Z</time>
      </trkpt>
      <trkpt lat="45.2191" lon="6.02471">
        <ele>1889.2491455078</ele>
        <time>2017-02-12T11:51:29Z</time>
      </trkpt>
      <trkpt lat="45.21909" lon="6.02465">
        <ele>1888.5120849609</ele>
        <time>2017-02-12T11:51:31Z</time>
      </trkpt>
      <trkpt lat="45.21908" lon="6.02463">
        <ele>1888.1320800781</ele>
        <time>2017-02-12T11:51:33Z</time>
      </trkpt>
      <trkpt lat="45.21907" lon="6.02459">
        <ele>1887.1787109375</ele>
        <time>2017-02-12T11:51:39Z</time>
      </trkpt>
      <trkpt lat="45.21902" lon="6.02447">
        <ele>1885.6016845703</ele>
        <time>2017-02-12T11:51:43Z</time>
      </trkpt>
      <trkpt lat="45.21904" lon="6.02437">
        <ele>1881.9260253906</ele>
        <time>2017-02-12T11:51:45Z</time>
      </trkpt>
      <trkpt lat="45.21918" lon="6.02433">
        <ele>1874.9235839844</ele>
        <time>2017-02-12T11:51:49Z</time>
      </trkpt>
      <trkpt lat="45.21926" lon="6.02431">
        <ele>1869.1695556641</ele>
        <time>2017-02-12T11:51:51Z</time>
      </trkpt>
      <trkpt lat="45.21936" lon="6.02433">
        <ele>1862.8952636719</ele>
        <time>2017-02-12T11:51:53Z</time>
      </trkpt>
      <trkpt lat="45.21945" lon="6.02437">
        <ele>1857.2463378906</ele>
        <time>2017-02-12T11:51:55Z</time>
      </trkpt>
      <trkpt lat="45.21955" lon="6.02436">
        <ele>1851.53125</ele>
        <time>2017-02-12T11:51:57Z</time>
      </trkpt>
      <trkpt lat="45.21965" lon="6.02434">
        <ele>1845.6682128906</ele>
        <time>2017-02-12T11:51:59Z</time>
      </trkpt>
      <trkpt lat="45.21999" lon="6.02417">
        <ele>1825.5717773438</ele>
        <time>2017-02-12T11:52:05Z</time>
      </trkpt>
      <trkpt lat="45.22005" lon="6.02415">
        <ele>1823.6627197266</ele>
        <time>2017-02-12T11:52:07Z</time>
      </trkpt>
      <trkpt lat="45.22001" lon="6.02407">
        <ele>1822.3992919922</ele>
        <time>2017-02-12T11:52:17Z</time>
      </trkpt>
      <trkpt lat="45.22001" lon="6.02406">
        <ele>1822.0268554688</ele>
        <time>2017-02-12T11:52:21Z</time>
      </trkpt>
      <trkpt lat="45.22001" lon="6.02409">
        <ele>1822.8559570312</ele>
        <time>2017-02-12T11:52:25Z</time>
      </trkpt>
      <trkpt lat="45.22002" lon="6.024">
        <ele>1820.4475097656</ele>
        <time>2017-02-12T11:52:28Z</time>
      </trkpt>
      <trkpt lat="45.22012" lon="6.02382">
        <ele>1814.4685058594</ele>
        <time>2017-02-12T11:52:32Z</time>
      </trkpt>
      <trkpt lat="45.22026" lon="6.02384">
        <ele>1812.1005859375</ele>
        <time>2017-02-12T11:52:36Z</time>
      </trkpt>
      <trkpt lat="45.22038" lon="6.02386">
        <ele>1806.9353027344</ele>
        <time>2017-02-12T11:52:38Z</time>
      </trkpt>
      <trkpt lat="45.2205" lon="6.02384">
        <ele>1800.4215087891</ele>
        <time>2017-02-12T11:52:40Z</time>
      </trkpt>
      <trkpt lat="45.22071" lon="6.02366">
        <ele>1792.5484619141</ele>
        <time>2017-02-12T11:52:44Z</time>
      </trkpt>
      <trkpt lat="45.22099" lon="6.02337">
        <ele>1781.5640869141</ele>
        <time>2017-02-12T11:52:50Z</time>
      </trkpt>
      <trkpt lat="45.22109" lon="6.02336">
        <ele>1778.7679443359</ele>
        <time>2017-02-12T11:52:52Z</time>
      </trkpt>
      <trkpt lat="45.22115" lon="6.02339">
        <ele>1777.2580566406</ele>
        <time>2017-02-12T11:52:54Z</time>
      </trkpt>
      <trkpt lat="45.22115" lon="6.02341">
        <ele>1777.3291015625</ele>
        <time>2017-02-12T11:52:56Z</time>
      </trkpt>
      <trkpt lat="45.22123" lon="6.02349">
        <ele>1775.6444091797</ele>
        <time>2017-02-12T11:53:00Z</time>
      </trkpt>
      <trkpt lat="45.22138" lon="6.02356">
        <ele>1771.5150146484</ele>
        <time>2017-02-12T11:53:04Z</time>
      </trkpt>
      <trkpt lat="45.2215" lon="6.02363">
        <ele>1767.5614013672</ele>
        <time>2017-02-12T11:53:06Z</time>
      </trkpt>
      <trkpt lat="45.22165" lon="6.02368">
        <ele>1762.1666259766</ele>
        <time>2017-02-12T11:53:08Z</time>
      </trkpt>
      <trkpt lat="45.22197" lon="6.02377">
        <ele>1751.9527587891</ele>
        <time>2017-02-12T11:53:12Z</time>
      </trkpt>
      <trkpt lat="45.22214" lon="6.02376">
        <ele>1746.2767333984</ele>
        <time>2017-02-12T11:53:14Z</time>
      </trkpt>
      <trkpt lat="45.22225" lon="6.02363">
        <ele>1739.5941162109</ele>
        <time>2017-02-12T11:53:16Z</time>
      </trkpt>
      <trkpt lat="45.22236" lon="6.02328">
        <ele>1736.5809326172</ele>
        <time>2017-02-12T11:53:20Z</time>
      </trkpt>
      <trkpt lat="45.22235" lon="6.02317">
        <ele>1736.9317626953</ele>
        <time>2017-02-12T11:53:22Z</time>
      </trkpt>
      <trkpt lat="45.22224" lon="6.02303">
        <ele>1739.6799316406</ele>
        <time>2017-02-12T11:53:26Z</time>
      </trkpt>
      <trkpt lat="45.22223" lon="6.02295">
        <ele>1739.9282226562</ele>
        <time>2017-02-12T11:53:28Z</time>
      </trkpt>
      <trkpt lat="45.22224" lon="6.02289">
        <ele>1739.5268554688</ele>
        <time>2017-02-12T11:53:30Z</time>
      </trkpt>
      <trkpt lat="45.22224" lon="6.02281">
        <ele>1739.380859375</ele>
        <time>2017-02-12T11:53:35Z</time>
      </trkpt>
      <trkpt lat="45.22225" lon="6.02275">
        <ele>1738.9337158203</ele>
        <time>2017-02-12T11:53:37Z</time>
      </trkpt>
      <trkpt lat="45.22227" lon="6.02254">
        <ele>1736.2083740234</ele>
        <time>2017-02-12T11:53:41Z</time>
      </trkpt>
      <trkpt lat="45.22229" lon="6.02245">
        <ele>1734.5208740234</ele>
        <time>2017-02-12T11:53:43Z</time>
      </trkpt>
      <trkpt lat="45.22235" lon="6.02226">
        <ele>1730.7365722656</ele>
        <time>2017-02-12T11:53:51Z</time>
      </trkpt>
      <trkpt lat="45.22234" lon="6.022">
        <ele>1727.8842773438</ele>
        <time>2017-02-12T11:53:57Z</time>
      </trkpt>
      <trkpt lat="45.22235" lon="6.02187">
        <ele>1726.1353759766</ele>
        <time>2017-02-12T11:54:03Z</time>
      </trkpt>
      <trkpt lat="45.22238" lon="6.02176">
        <ele>1724.5325927734</ele>
        <time>2017-02-12T11:54:05Z</time>
      </trkpt>
      <trkpt lat="45.22259" lon="6.02121">
        <ele>1720.0006103516</ele>
        <time>2017-02-12T11:54:11Z</time>
      </trkpt>
      <trkpt lat="45.22263" lon="6.02106">
        <ele>1718.0012207031</ele>
        <time>2017-02-12T11:54:13Z</time>
      </trkpt>
      <trkpt lat="45.22259" lon="6.02078">
        <ele>1712.1791992188</ele>
        <time>2017-02-12T11:54:17Z</time>
      </trkpt>
      <trkpt lat="45.22248" lon="6.02039">
        <ele>1704.8703613281</ele>
        <time>2017-02-12T11:54:23Z</time>
      </trkpt>
      <trkpt lat="45.22248" lon="6.02009">
        <ele>1700.0880126953</ele>
        <time>2017-02-12T11:54:27Z</time>
      </trkpt>
      <trkpt lat="45.22247" lon="6.0199">
        <ele>1696.9332275391</ele>
        <time>2017-02-12T11:54:29Z</time>
      </trkpt>
      <trkpt lat="45.2225" lon="6.0197">
        <ele>1694.6154785156</ele>
        <time>2017-02-12T11:54:31Z</time>
      </trkpt>
      <trkpt lat="45.22251" lon="6.01957">
        <ele>1693.5126953125</ele>
        <time>2017-02-12T11:54:33Z</time>
      </trkpt>
      <trkpt lat="45.22249" lon="6.01924">
        <ele>1690.1911621094</ele>
        <time>2017-02-12T11:54:39Z</time>
      </trkpt>
      <trkpt lat="45.22252" lon="6.01907">
        <ele>1688.8192138672</ele>
        <time>2017-02-12T11:54:41Z</time>
      </trkpt>
      <trkpt lat="45.22261" lon="6.01859">
        <ele>1684.2767333984</ele>
        <time>2017-02-12T11:54:47Z</time>
      </trkpt>
      <trkpt lat="45.2227" lon="6.01827">
        <ele>1682.2253417969</ele>
        <time>2017-02-12T11:54:53Z</time>
      </trkpt>
      <trkpt lat="45.22272" lon="6.01811">
        <ele>1680.7696533203</ele>
        <time>2017-02-12T11:54:55Z</time>
      </trkpt>
      <trkpt lat="45.22271" lon="6.0178">
        <ele>1677.6462402344</ele>
        <time>2017-02-12T11:54:59Z</time>
      </trkpt>
      <trkpt lat="45.2227" lon="6.01763">
        <ele>1675.9930419922</ele>
        <time>2017-02-12T11:55:01Z</time>
      </trkpt>
      <trkpt lat="45.22265" lon="6.01726">
        <ele>1670.2518310547</ele>
        <time>2017-02-12T11:55:05Z</time>
      </trkpt>
      <trkpt lat="45.22264" lon="6.01679">
        <ele>1666.279296875</ele>
        <time>2017-02-12T11:55:11Z</time>
      </trkpt>
      <trkpt lat="45.22264" lon="6.01663">
        <ele>1666.1656494141</ele>
        <time>2017-02-12T11:55:15Z</time>
      </trkpt>
      <trkpt lat="45.22262" lon="6.01652">
        <ele>1665.0949707031</ele>
        <time>2017-02-12T11:55:19Z</time>
      </trkpt>
      <trkpt lat="45.22261" lon="6.01632">
        <ele>1665.0012207031</ele>
        <time>2017-02-12T11:55:36Z</time>
      </trkpt>
      <trkpt lat="45.22256" lon="6.01597">
        <ele>1665.1187744141</ele>
        <time>2017-02-12T11:55:54Z</time>
      </trkpt>
      <trkpt lat="45.22239" lon="6.01511">
        <ele>1663.8408203125</ele>
        <time>2017-02-12T11:56:23Z</time>
      </trkpt>
      <trkpt lat="45.22234" lon="6.01468">
        <ele>1666.4827880859</ele>
        <time>2017-02-12T11:56:39Z</time>
      </trkpt>
      <trkpt lat="45.22231" lon="6.0145">
        <ele>1666.4266357422</ele>
        <time>2017-02-12T11:56:43Z</time>
      </trkpt>
      <trkpt lat="45.22229" lon="6.0144">
        <ele>1665.7860107422</ele>
        <time>2017-02-12T11:56:45Z</time>
      </trkpt>
      <trkpt lat="45.22224" lon="6.01429">
        <ele>1663.9968261719</ele>
        <time>2017-02-12T11:56:51Z</time>
      </trkpt>
      <trkpt lat="45.22226" lon="6.0142">
        <ele>1663.8728027344</ele>
        <time>2017-02-12T11:56:53Z</time>
      </trkpt>
      <trkpt lat="45.2223" lon="6.01408">
        <ele>1663.0832519531</ele>
        <time>2017-02-12T11:56:55Z</time>
      </trkpt>
      <trkpt lat="45.22241" lon="6.01384">
        <ele>1661.6481933594</ele>
        <time>2017-02-12T11:56:59Z</time>
      </trkpt>
      <trkpt lat="45.22248" lon="6.01378">
        <ele>1661.9709472656</ele>
        <time>2017-02-12T11:57:01Z</time>
      </trkpt>
      <trkpt lat="45.2227" lon="6.0136">
        <ele>1659.5648193359</ele>
        <time>2017-02-12T11:57:07Z</time>
      </trkpt>
      <trkpt lat="45.22269" lon="6.01334">
        <ele>1651.4631347656</ele>
        <time>2017-02-12T11:57:13Z</time>
      </trkpt>
      <trkpt lat="45.22277" lon="6.01303">
        <ele>1645.5738525391</ele>
        <time>2017-02-12T11:57:19Z</time>
      </trkpt>
      <trkpt lat="45.22273" lon="6.01297">
        <ele>1644.0875244141</ele>
        <time>2017-02-12T11:57:21Z</time>
      </trkpt>
      <trkpt lat="45.22243" lon="6.01305">
        <ele>1643.7225341797</ele>
        <time>2017-02-12T11:57:27Z</time>
      </trkpt>
      <trkpt lat="45.22232" lon="6.01302">
        <ele>1642.5653076172</ele>
        <time>2017-02-12T11:57:29Z</time>
      </trkpt>
      <trkpt lat="45.22224" lon="6.01294">
        <ele>1640.0881347656</ele>
        <time>2017-02-12T11:57:31Z</time>
      </trkpt>
      <trkpt lat="45.22222" lon="6.0128">
        <ele>1636.5496826172</ele>
        <time>2017-02-12T11:57:33Z</time>
      </trkpt>
      <trkpt lat="45.22228" lon="6.01267">
        <ele>1633.9581298828</ele>
        <time>2017-02-12T11:57:35Z</time>
      </trkpt>
      <trkpt lat="45.22234" lon="6.01257">
        <ele>1632.0389404297</ele>
        <time>2017-02-12T11:57:37Z</time>
      </trkpt>
      <trkpt lat="45.2224" lon="6.01227">
        <ele>1623.8298339844</ele>
        <time>2017-02-12T11:57:43Z</time>
      </trkpt>
      <trkpt lat="45.2224" lon="6.01221">
        <ele>1622.1958007812</ele>
        <time>2017-02-12T11:57:47Z</time>
      </trkpt>
      <trkpt lat="45.22239" lon="6.01215">
        <ele>1621.1417236328</ele>
        <time>2017-02-12T11:57:49Z</time>
      </trkpt>
      <trkpt lat="45.22238" lon="6.01205">
        <ele>1619.2689208984</ele>
        <time>2017-02-12T11:57:51Z</time>
      </trkpt>
      <trkpt lat="45.22242" lon="6.01179">
        <ele>1615.1759033203</ele>
        <time>2017-02-12T11:57:55Z</time>
      </trkpt>
      <trkpt lat="45.22234" lon="6.01157">
        <ele>1613.1584472656</ele>
        <time>2017-02-12T11:57:59Z</time>
      </trkpt>
      <trkpt lat="45.22232" lon="6.01146">
        <ele>1611.9997558594</ele>
        <time>2017-02-12T11:58:01Z</time>
      </trkpt>
      <trkpt lat="45.22237" lon="6.01102">
        <ele>1605.2156982422</ele>
        <time>2017-02-12T11:58:07Z</time>
      </trkpt>
      <trkpt lat="45.22242" lon="6.01091">
        <ele>1603.1549072266</ele>
        <time>2017-02-12T11:58:09Z</time>
      </trkpt>
      <trkpt lat="45.22237" lon="6.01083">
        <ele>1602.7348632812</ele>
        <time>2017-02-12T11:58:19Z</time>
      </trkpt>
      <trkpt lat="45.22233" lon="6.01074">
        <ele>1602.3762207031</ele>
        <time>2017-02-12T11:58:21Z</time>
      </trkpt>
      <trkpt lat="45.22231" lon="6.01062">
        <ele>1601.2940673828</ele>
        <time>2017-02-12T11:58:23Z</time>
      </trkpt>
      <trkpt lat="45.22232" lon="6.01035">
        <ele>1597.7854003906</ele>
        <time>2017-02-12T11:58:27Z</time>
      </trkpt>
      <trkpt lat="45.22234" lon="6.01019">
        <ele>1594.9840087891</ele>
        <time>2017-02-12T11:58:29Z</time>
      </trkpt>
      <trkpt lat="45.2225" lon="6.00948">
        <ele>1574.7755126953</ele>
        <time>2017-02-12T11:58:39Z</time>
      </trkpt>
      <trkpt lat="45.22255" lon="6.00939">
        <ele>1572.9461669922</ele>
        <time>2017-02-12T11:58:41Z</time>
      </trkpt>
      <trkpt lat="45.22277" lon="6.00918">
        <ele>1570.2406005859</ele>
        <time>2017-02-12T11:58:49Z</time>
      </trkpt>
      <trkpt lat="45.22279" lon="6.00908">
        <ele>1568.2979736328</ele>
        <time>2017-02-12T11:58:51Z</time>
      </trkpt>
      <trkpt lat="45.22271" lon="6.00899">
        <ele>1564.978515625</ele>
        <time>2017-02-12T11:58:55Z</time>
      </trkpt>
      <trkpt lat="45.22256" lon="6.00901">
        <ele>1563.1298828125</ele>
        <time>2017-02-12T11:58:59Z</time>
      </trkpt>
      <trkpt lat="45.2225" lon="6.00899">
        <ele>1561.6376953125</ele>
        <time>2017-02-12T11:59:01Z</time>
      </trkpt>
      <trkpt lat="45.22242" lon="6.00893">
        <ele>1565.3695068359</ele>
        <time>2017-02-12T11:59:03Z</time>
      </trkpt>
      <trkpt lat="45.22242" lon="6.00868">
        <ele>1559.0877685547</ele>
        <time>2017-02-12T11:59:07Z</time>
      </trkpt>
      <trkpt lat="45.22224" lon="6.00828">
        <ele>1555.4748535156</ele>
        <time>2017-02-12T11:59:15Z</time>
      </trkpt>
      <trkpt lat="45.22222" lon="6.00821">
        <ele>1553.8238525391</ele>
        <time>2017-02-12T11:59:17Z</time>
      </trkpt>
      <trkpt lat="45.22222" lon="6.00822">
        <ele>1554.1450195312</ele>
        <time>2017-02-12T11:59:20Z</time>
      </trkpt>
      <trkpt lat="45.22232" lon="6.00796">
        <ele>1542.2686767578</ele>
        <time>2017-02-12T11:59:24Z</time>
      </trkpt>
      <trkpt lat="45.22232" lon="6.00769">
        <ele>1534.6342773438</ele>
        <time>2017-02-12T11:59:28Z</time>
      </trkpt>
      <trkpt lat="45.22235" lon="6.00755">
        <ele>1530.7943115234</ele>
        <time>2017-02-12T11:59:30Z</time>
      </trkpt>
      <trkpt lat="45.22238" lon="6.00744">
        <ele>1527.78515625</ele>
        <time>2017-02-12T11:59:32Z</time>
      </trkpt>
      <trkpt lat="45.22239" lon="6.00734">
        <ele>1525.1993408203</ele>
        <time>2017-02-12T11:59:34Z</time>
      </trkpt>
      <trkpt lat="45.2224" lon="6.00684">
        <ele>1516.0289306641</ele>
        <time>2017-02-12T11:59:40Z</time>
      </trkpt>
      <trkpt lat="45.22243" lon="6.00647">
        <ele>1509.9591064453</ele>
        <time>2017-02-12T11:59:46Z</time>
      </trkpt>
      <trkpt lat="45.22241" lon="6.00636">
        <ele>1508.5930175781</ele>
        <time>2017-02-12T11:59:48Z</time>
      </trkpt>
      <trkpt lat="45.22232" lon="6.0061">
        <ele>1506.7875976562</ele>
        <time>2017-02-12T11:59:52Z</time>
      </trkpt>
      <trkpt lat="45.2222" lon="6.00589">
        <ele>1506.8767089844</ele>
        <time>2017-02-12T11:59:56Z</time>
      </trkpt>
      <trkpt lat="45.22219" lon="6.00576">
        <ele>1505.4069824219</ele>
        <time>2017-02-12T11:59:58Z</time>
      </trkpt>
      <trkpt lat="45.22224" lon="6.00538">
        <ele>1496.5100097656</ele>
        <time>2017-02-12T12:00:06Z</time>
      </trkpt>
      <trkpt lat="45.22223" lon="6.00528">
        <ele>1495.7193603516</ele>
        <time>2017-02-12T12:00:08Z</time>
      </trkpt>
      <trkpt lat="45.22221" lon="6.00517">
        <ele>1494.5236816406</ele>
        <time>2017-02-12T12:00:10Z</time>
      </trkpt>
      <trkpt lat="45.22216" lon="6.00506">
        <ele>1495.5344238281</ele>
        <time>2017-02-12T12:00:12Z</time>
      </trkpt>
      <trkpt lat="45.22218" lon="6.00499">
        <ele>1493.7309570312</ele>
        <time>2017-02-12T12:00:14Z</time>
      </trkpt>
      <trkpt lat="45.22237" lon="6.00505">
        <ele>1484.1955566406</ele>
        <time>2017-02-12T12:00:18Z</time>
      </trkpt>
      <trkpt lat="45.22237" lon="6.00499">
        <ele>1483.4178466797</ele>
        <time>2017-02-12T12:00:20Z</time>
      </trkpt>
      <trkpt lat="45.22232" lon="6.00489">
        <ele>1484.2211914062</ele>
        <time>2017-02-12T12:00:22Z</time>
      </trkpt>
      <trkpt lat="45.22232" lon="6.00478">
        <ele>1482.0462646484</ele>
        <time>2017-02-12T12:00:24Z</time>
      </trkpt>
      <trkpt lat="45.22236" lon="6.00467">
        <ele>1478.05078125</ele>
        <time>2017-02-12T12:00:26Z</time>
      </trkpt>
      <trkpt lat="45.2224" lon="6.00446">
        <ele>1471.7117919922</ele>
        <time>2017-02-12T12:00:30Z</time>
      </trkpt>
      <trkpt lat="45.22245" lon="6.00438">
        <ele>1468.1839599609</ele>
        <time>2017-02-12T12:00:32Z</time>
      </trkpt>
      <trkpt lat="45.22251" lon="6.00439">
        <ele>1465.7916259766</ele>
        <time>2017-02-12T12:00:34Z</time>
      </trkpt>
      <trkpt lat="45.22266" lon="6.00429">
        <ele>1460.1796875</ele>
        <time>2017-02-12T12:00:38Z</time>
      </trkpt>
      <trkpt lat="45.22291" lon="6.00441">
        <ele>1455.8587646484</ele>
        <time>2017-02-12T12:00:44Z</time>
      </trkpt>
      <trkpt lat="45.22292" lon="6.00439">
        <ele>1455.2150878906</ele>
        <time>2017-02-12T12:00:49Z</time>
      </trkpt>
      <trkpt lat="45.22302" lon="6.00407">
        <ele>1444.1309814453</ele>
        <time>2017-02-12T12:00:54Z</time>
      </trkpt>
      <trkpt lat="45.22307" lon="6.00391">
        <ele>1439.3499755859</ele>
        <time>2017-02-12T12:00:56Z</time>
      </trkpt>
      <trkpt lat="45.22326" lon="6.00362">
        <ele>1434.1021728516</ele>
        <time>2017-02-12T12:01:00Z</time>
      </trkpt>
      <trkpt lat="45.22328" lon="6.00342">
        <ele>1431.1689453125</ele>
        <time>2017-02-12T12:01:02Z</time>
      </trkpt>
      <trkpt lat="45.22325" lon="6.00304">
        <ele>1425.1420898438</ele>
        <time>2017-02-12T12:01:06Z</time>
      </trkpt>
      <trkpt lat="45.22316" lon="6.00271">
        <ele>1419.8093261719</ele>
        <time>2017-02-12T12:01:10Z</time>
      </trkpt>
      <trkpt lat="45.2231" lon="6.00257">
        <ele>1417.6901855469</ele>
        <time>2017-02-12T12:01:12Z</time>
      </trkpt>
      <trkpt lat="45.223" lon="6.00231">
        <ele>1416.2465820312</ele>
        <time>2017-02-12T12:01:16Z</time>
      </trkpt>
      <trkpt lat="45.22301" lon="6.00214">
        <ele>1414.9134521484</ele>
        <time>2017-02-12T12:01:18Z</time>
      </trkpt>
      <trkpt lat="45.22308" lon="6.00198">
        <ele>1411.7698974609</ele>
        <time>2017-02-12T12:01:20Z</time>
      </trkpt>
      <trkpt lat="45.22335" lon="6.00176">
        <ele>1400.6147460938</ele>
        <time>2017-02-12T12:01:24Z</time>
      </trkpt>
      <trkpt lat="45.22361" lon="6.00149">
        <ele>1395.1241455078</ele>
        <time>2017-02-12T12:01:28Z</time>
      </trkpt>
      <trkpt lat="45.22391" lon="6.00137">
        <ele>1393.7392578125</ele>
        <time>2017-02-12T12:01:32Z</time>
      </trkpt>
      <trkpt lat="45.22406" lon="6.00129">
        <ele>1393.1762695312</ele>
        <time>2017-02-12T12:01:34Z</time>
      </trkpt>
      <trkpt lat="45.22421" lon="6.00117">
        <ele>1392.2225341797</ele>
        <time>2017-02-12T12:01:36Z</time>
      </trkpt>
      <trkpt lat="45.22446" lon="6.00083">
        <ele>1390.1260986328</ele>
        <time>2017-02-12T12:01:40Z</time>
      </trkpt>
      <trkpt lat="45.22492" lon="6.00009">
        <ele>1383.1645507812</ele>
        <time>2017-02-12T12:01:48Z</time>
      </trkpt>
      <trkpt lat="45.22508" lon="5.99948">
        <ele>1370.4580078125</ele>
        <time>2017-02-12T12:01:53Z</time>
      </trkpt>
      <trkpt lat="45.22519" lon="5.99872">
        <ele>1358.7844238281</ele>
        <time>2017-02-12T12:01:59Z</time>
      </trkpt>
      <trkpt lat="45.2253" lon="5.99827">
        <ele>1355.9110107422</ele>
        <time>2017-02-12T12:02:03Z</time>
      </trkpt>
      <trkpt lat="45.22537" lon="5.99783">
        <ele>1351.4765625</ele>
        <time>2017-02-12T12:02:07Z</time>
      </trkpt>
      <trkpt lat="45.2253" lon="5.9977">
        <ele>1345.9593505859</ele>
        <time>2017-02-12T12:02:09Z</time>
      </trkpt>
      <trkpt lat="45.22507" lon="5.99824">
        <ele>1345.6357421875</ele>
        <time>2017-02-12T12:02:17Z</time>
      </trkpt>
      <trkpt lat="45.22499" lon="5.99841">
        <ele>1345.1927490234</ele>
        <time>2017-02-12T12:02:20Z</time>
      </trkpt>
      <trkpt lat="45.2248" lon="5.99878">
        <ele>1343.2882080078</ele>
        <time>2017-02-12T12:02:27Z</time>
      </trkpt>
      <trkpt lat="45.22463" lon="5.99889">
        <ele>1339.3913574219</ele>
        <time>2017-02-12T12:02:32Z</time>
      </trkpt>
      <trkpt lat="45.22455" lon="5.9989">
        <ele>1337.3479003906</ele>
        <time>2017-02-12T12:02:35Z</time>
      </trkpt>
      <trkpt lat="45.22448" lon="5.99872">
        <ele>1331.9006347656</ele>
        <time>2017-02-12T12:02:39Z</time>
      </trkpt>
      <trkpt lat="45.22444" lon="5.99869">
        <ele>1330.568359375</ele>
        <time>2017-02-12T12:02:48Z</time>
      </trkpt>
      <trkpt lat="45.22443" lon="5.99864">
        <ele>1330.4293212891</ele>
        <time>2017-02-12T12:02:57Z</time>
      </trkpt>
      <trkpt lat="45.22443" lon="5.99855">
        <ele>1328.86328125</ele>
        <time>2017-02-12T12:03:02Z</time>
      </trkpt>
      <trkpt lat="45.22446" lon="5.99847">
        <ele>1326.1951904297</ele>
        <time>2017-02-12T12:03:05Z</time>
      </trkpt>
      <trkpt lat="45.22488" lon="5.9981">
        <ele>1332.8135986328</ele>
        <time>2017-02-12T12:03:18Z</time>
      </trkpt>
      <trkpt lat="45.22496" lon="5.99795">
        <ele>1334.5140380859</ele>
        <time>2017-02-12T12:03:21Z</time>
      </trkpt>
      <trkpt lat="45.22511" lon="5.99681">
        <ele>1321.3713378906</ele>
        <time>2017-02-12T12:03:39Z</time>
      </trkpt>
      <trkpt lat="45.22509" lon="5.99639">
        <ele>1313.0833740234</ele>
        <time>2017-02-12T12:03:45Z</time>
      </trkpt>
      <trkpt lat="45.22509" lon="5.99619">
        <ele>1309.7615966797</ele>
        <time>2017-02-12T12:03:48Z</time>
      </trkpt>
      <trkpt lat="45.22516" lon="5.99587">
        <ele>1307.1746826172</ele>
        <time>2017-02-12T12:03:52Z</time>
      </trkpt>
      <trkpt lat="45.22522" lon="5.99574">
        <ele>1307.8643798828</ele>
        <time>2017-02-12T12:03:54Z</time>
      </trkpt>
      <trkpt lat="45.22548" lon="5.9953">
        <ele>1308.3640136719</ele>
        <time>2017-02-12T12:04:01Z</time>
      </trkpt>
      <trkpt lat="45.22572" lon="5.99503">
        <ele>1306.5435791016</ele>
        <time>2017-02-12T12:04:06Z</time>
      </trkpt>
      <trkpt lat="45.22612" lon="5.99443">
        <ele>1300.1787109375</ele>
        <time>2017-02-12T12:04:14Z</time>
      </trkpt>
      <trkpt lat="45.22625" lon="5.9943">
        <ele>1300.8975830078</ele>
        <time>2017-02-12T12:04:16Z</time>
      </trkpt>
      <trkpt lat="45.22661" lon="5.99411">
        <ele>1299.2083740234</ele>
        <time>2017-02-12T12:04:21Z</time>
      </trkpt>
      <trkpt lat="45.22728" lon="5.99363">
        <ele>1282.818359375</ele>
        <time>2017-02-12T12:04:31Z</time>
      </trkpt>
      <trkpt lat="45.22743" lon="5.99347">
        <ele>1278.1845703125</ele>
        <time>2017-02-12T12:04:34Z</time>
      </trkpt>
      <trkpt lat="45.22787" lon="5.99297">
        <ele>1266.8223876953</ele>
        <time>2017-02-12T12:04:44Z</time>
      </trkpt>
      <trkpt lat="45.22838" lon="5.99258">
        <ele>1267.982421875</ele>
        <time>2017-02-12T12:04:56Z</time>
      </trkpt>
      <trkpt lat="45.22847" lon="5.99246">
        <ele>1266.658203125</ele>
        <time>2017-02-12T12:04:59Z</time>
      </trkpt>
      <trkpt lat="45.22907" lon="5.99169">
        <ele>1255.80078125</ele>
        <time>2017-02-12T12:05:14Z</time>
      </trkpt>
      <trkpt lat="45.22917" lon="5.99161">
        <ele>1253.8875732422</ele>
        <time>2017-02-12T12:05:16Z</time>
      </trkpt>
      <trkpt lat="45.22975" lon="5.99153">
        <ele>1257.0076904297</ele>
        <time>2017-02-12T12:05:26Z</time>
      </trkpt>
      <trkpt lat="45.22991" lon="5.99146">
        <ele>1255.4387207031</ele>
        <time>2017-02-12T12:05:29Z</time>
      </trkpt>
      <trkpt lat="45.23027" lon="5.99129">
        <ele>1248.7416992188</ele>
        <time>2017-02-12T12:05:36Z</time>
      </trkpt>
      <trkpt lat="45.23069" lon="5.99114">
        <ele>1242.8742675781</ele>
        <time>2017-02-12T12:05:44Z</time>
      </trkpt>
      <trkpt lat="45.23095" lon="5.99101">
        <ele>1241.9951171875</ele>
        <time>2017-02-12T12:05:49Z</time>
      </trkpt>
      <trkpt lat="45.23105" lon="5.99094">
        <ele>1242.0700683594</ele>
        <time>2017-02-12T12:05:51Z</time>
      </trkpt>
      <trkpt lat="45.2312" lon="5.99082">
        <ele>1242.5576171875</ele>
        <time>2017-02-12T12:05:54Z</time>
      </trkpt>
      <trkpt lat="45.23128" lon="5.9907">
        <ele>1241.404296875</ele>
        <time>2017-02-12T12:05:56Z</time>
      </trkpt>
      <trkpt lat="45.23149" lon="5.99001">
        <ele>1230.9410400391</ele>
        <time>2017-02-12T12:06:06Z</time>
      </trkpt>
      <trkpt lat="45.23177" lon="5.9895">
        <ele>1225.3665771484</ele>
        <time>2017-02-12T12:06:14Z</time>
      </trkpt>
      <trkpt lat="45.23199" lon="5.98908">
        <ele>1219.5974121094</ele>
        <time>2017-02-12T12:06:21Z</time>
      </trkpt>
      <trkpt lat="45.23213" lon="5.98892">
        <ele>1218.4968261719</ele>
        <time>2017-02-12T12:06:24Z</time>
      </trkpt>
      <trkpt lat="45.2324" lon="5.98876">
        <ele>1215.3966064453</ele>
        <time>2017-02-12T12:06:29Z</time>
      </trkpt>
      <trkpt lat="45.23289" lon="5.98857">
        <ele>1209.3649902344</ele>
        <time>2017-02-12T12:06:38Z</time>
      </trkpt>
      <trkpt lat="45.23354" lon="5.98809">
        <ele>1198.6057128906</ele>
        <time>2017-02-12T12:06:51Z</time>
      </trkpt>
      <trkpt lat="45.23415" lon="5.98756">
        <ele>1193.0433349609</ele>
        <time>2017-02-12T12:07:02Z</time>
      </trkpt>
      <trkpt lat="45.23429" lon="5.98739">
        <ele>1191.2790527344</ele>
        <time>2017-02-12T12:07:05Z</time>
      </trkpt>
      <trkpt lat="45.23447" lon="5.9871">
        <ele>1187.2524414062</ele>
        <time>2017-02-12T12:07:09Z</time>
      </trkpt>
      <trkpt lat="45.23456" lon="5.98697">
        <ele>1186.1336669922</ele>
        <time>2017-02-12T12:07:11Z</time>
      </trkpt>
      <trkpt lat="45.23479" lon="5.98651">
        <ele>1179.8698730469</ele>
        <time>2017-02-12T12:07:17Z</time>
      </trkpt>
      <trkpt lat="45.23516" lon="5.98587">
        <ele>1170.5985107422</ele>
        <time>2017-02-12T12:07:26Z</time>
      </trkpt>
      <trkpt lat="45.23525" lon="5.98573">
        <ele>1168.4974365234</ele>
        <time>2017-02-12T12:07:28Z</time>
      </trkpt>
      <trkpt lat="45.23562" lon="5.98529">
        <ele>1162.2766113281</ele>
        <time>2017-02-12T12:07:35Z</time>
      </trkpt>
      <trkpt lat="45.23573" lon="5.98521">
        <ele>1161.2532958984</ele>
        <time>2017-02-12T12:07:37Z</time>
      </trkpt>
      <trkpt lat="45.23587" lon="5.98511">
        <ele>1160.6628417969</ele>
        <time>2017-02-12T12:07:40Z</time>
      </trkpt>
      <trkpt lat="45.23622" lon="5.98492">
        <ele>1158.7756347656</ele>
        <time>2017-02-12T12:07:46Z</time>
      </trkpt>
      <trkpt lat="45.2364" lon="5.98478">
        <ele>1155.0053710938</ele>
        <time>2017-02-12T12:07:50Z</time>
      </trkpt>
      <trkpt lat="45.23648" lon="5.98475">
        <ele>1154.1127929688</ele>
        <time>2017-02-12T12:07:52Z</time>
      </trkpt>
      <trkpt lat="45.23658" lon="5.98477">
        <ele>1154.6448974609</ele>
        <time>2017-02-12T12:07:54Z</time>
      </trkpt>
      <trkpt lat="45.237" lon="5.9849">
        <ele>1161.3999023438</ele>
        <time>2017-02-12T12:08:02Z</time>
      </trkpt>
      <trkpt lat="45.23715" lon="5.98488">
        <ele>1160.5073242188</ele>
        <time>2017-02-12T12:08:05Z</time>
      </trkpt>
      <trkpt lat="45.23761" lon="5.98449">
        <ele>1149.2238769531</ele>
        <time>2017-02-12T12:08:15Z</time>
      </trkpt>
      <trkpt lat="45.23772" lon="5.98441">
        <ele>1147.4786376953</ele>
        <time>2017-02-12T12:08:17Z</time>
      </trkpt>
      <trkpt lat="45.23792" lon="5.98429">
        <ele>1145.9655761719</ele>
        <time>2017-02-12T12:08:21Z</time>
      </trkpt>
      <trkpt lat="45.23824" lon="5.9843">
        <ele>1146.0886230469</ele>
        <time>2017-02-12T12:08:27Z</time>
      </trkpt>
      <trkpt lat="45.23864" lon="5.98435">
        <ele>1143.5178222656</ele>
        <time>2017-02-12T12:08:35Z</time>
      </trkpt>
      <trkpt lat="45.23875" lon="5.98432">
        <ele>1141.2786865234</ele>
        <time>2017-02-12T12:08:37Z</time>
      </trkpt>
      <trkpt lat="45.23892" lon="5.98423">
        <ele>1137.1016845703</ele>
        <time>2017-02-12T12:08:40Z</time>
      </trkpt>
      <trkpt lat="45.23913" lon="5.98363">
        <ele>1125.1004638672</ele>
        <time>2017-02-12T12:08:49Z</time>
      </trkpt>
      <trkpt lat="45.2393" lon="5.98347">
        <ele>1123.3598632812</ele>
        <time>2017-02-12T12:08:53Z</time>
      </trkpt>
      <trkpt lat="45.2396" lon="5.98321">
        <ele>1121.2546386719</ele>
        <time>2017-02-12T12:09:00Z</time>
      </trkpt>
      <trkpt lat="45.23967" lon="5.98314">
        <ele>1120.8062744141</ele>
        <time>2017-02-12T12:09:02Z</time>
      </trkpt>
      <trkpt lat="45.23979" lon="5.98306">
        <ele>1120.9854736328</ele>
        <time>2017-02-12T12:09:05Z</time>
      </trkpt>
      <trkpt lat="45.24008" lon="5.983">
        <ele>1122.8458251953</ele>
        <time>2017-02-12T12:09:11Z</time>
      </trkpt>
      <trkpt lat="45.24031" lon="5.98297">
        <ele>1123.7432861328</ele>
        <time>2017-02-12T12:09:15Z</time>
      </trkpt>
      <trkpt lat="45.24043" lon="5.98293">
        <ele>1123.2106933594</ele>
        <time>2017-02-12T12:09:17Z</time>
      </trkpt>
      <trkpt lat="45.24063" lon="5.98275">
        <ele>1118.517578125</ele>
        <time>2017-02-12T12:09:21Z</time>
      </trkpt>
      <trkpt lat="45.24075" lon="5.98248">
        <ele>1111.8226318359</ele>
        <time>2017-02-12T12:09:25Z</time>
      </trkpt>
      <trkpt lat="45.2409" lon="5.98164">
        <ele>1096.2041015625</ele>
        <time>2017-02-12T12:09:35Z</time>
      </trkpt>
      <trkpt lat="45.24103" lon="5.98134">
        <ele>1091.4296875</ele>
        <time>2017-02-12T12:09:39Z</time>
      </trkpt>
      <trkpt lat="45.2412" lon="5.98115">
        <ele>1090.8157958984</ele>
        <time>2017-02-12T12:09:43Z</time>
      </trkpt>
      <trkpt lat="45.24152" lon="5.981">
        <ele>1092.2180175781</ele>
        <time>2017-02-12T12:09:53Z</time>
      </trkpt>
      <trkpt lat="45.24155" lon="5.98095">
        <ele>1091.5830078125</ele>
        <time>2017-02-12T12:09:55Z</time>
      </trkpt>
      <trkpt lat="45.24165" lon="5.98081">
        <ele>1088.7790527344</ele>
        <time>2017-02-12T12:10:11Z</time>
      </trkpt>
      <trkpt lat="45.24184" lon="5.98051">
        <ele>1085.9990234375</ele>
        <time>2017-02-12T12:10:30Z</time>
      </trkpt>
      <trkpt lat="45.24189" lon="5.98048">
        <ele>1087.3654785156</ele>
        <time>2017-02-12T12:10:34Z</time>
      </trkpt>
      <trkpt lat="45.24193" lon="5.9805">
        <ele>1089.2604980469</ele>
        <time>2017-02-12T12:10:44Z</time>
      </trkpt>
      <trkpt lat="45.24209" lon="5.98028">
        <ele>1087.595703125</ele>
        <time>2017-02-12T12:11:02Z</time>
      </trkpt>
      <trkpt lat="45.2422" lon="5.98019">
        <ele>1087.4770507812</ele>
        <time>2017-02-12T12:11:11Z</time>
      </trkpt>
      <trkpt lat="45.24231" lon="5.98018">
        <ele>1090.2066650391</ele>
        <time>2017-02-12T12:11:19Z</time>
      </trkpt>
      <trkpt lat="45.24235" lon="5.98018">
        <ele>1091.3768310547</ele>
        <time>2017-02-12T12:11:21Z</time>
      </trkpt>
      <trkpt lat="45.24278" lon="5.98005">
        <ele>1091.4967041016</ele>
        <time>2017-02-12T12:11:52Z</time>
      </trkpt>
      <trkpt lat="45.24293" lon="5.97993">
        <ele>1087.9270019531</ele>
        <time>2017-02-12T12:12:05Z</time>
      </trkpt>
      <trkpt lat="45.24322" lon="5.97984">
        <ele>1085.6715087891</ele>
        <time>2017-02-12T12:12:27Z</time>
      </trkpt>
      <trkpt lat="45.24368" lon="5.97955">
        <ele>1079.9373779297</ele>
        <time>2017-02-12T12:13:01Z</time>
      </trkpt>
      <trkpt lat="45.24393" lon="5.97928">
        <ele>1074.2185058594</ele>
        <time>2017-02-12T12:13:23Z</time>
      </trkpt>
      <trkpt lat="45.24396" lon="5.97927">
        <ele>1074.1838378906</ele>
        <time>2017-02-12T12:13:25Z</time>
      </trkpt>
      <trkpt lat="45.24437" lon="5.97917">
        <ele>1072.8155517578</ele>
        <time>2017-02-12T12:13:51Z</time>
      </trkpt>
      <trkpt lat="45.24468" lon="5.97901">
        <ele>1070.4144287109</ele>
        <time>2017-02-12T12:14:11Z</time>
      </trkpt>
      <trkpt lat="45.24477" lon="5.97893">
        <ele>1069.0831298828</ele>
        <time>2017-02-12T12:14:17Z</time>
      </trkpt>
      <trkpt lat="45.24499" lon="5.9787">
        <ele>1064.2818603516</ele>
        <time>2017-02-12T12:14:35Z</time>
      </trkpt>
      <trkpt lat="45.24501" lon="5.97867">
        <ele>1063.7093505859</ele>
        <time>2017-02-12T12:14:37Z</time>
      </trkpt>
      <trkpt lat="45.24509" lon="5.97856">
        <ele>1061.4163818359</ele>
        <time>2017-02-12T12:14:43Z</time>
      </trkpt>
      <trkpt lat="45.24516" lon="5.9785">
        <ele>1060.7091064453</ele>
        <time>2017-02-12T12:14:49Z</time>
      </trkpt>
      <trkpt lat="45.24524" lon="5.97835">
        <ele>1058.1892089844</ele>
        <time>2017-02-12T12:14:57Z</time>
      </trkpt>
      <trkpt lat="45.24552" lon="5.97821">
        <ele>1057.8857421875</ele>
        <time>2017-02-12T12:15:17Z</time>
      </trkpt>
      <trkpt lat="45.24555" lon="5.97819">
        <ele>1057.8651123047</ele>
        <time>2017-02-12T12:15:19Z</time>
      </trkpt>
      <trkpt lat="45.24566" lon="5.97801">
        <ele>1054.3505859375</ele>
        <time>2017-02-12T12:15:29Z</time>
      </trkpt>
      <trkpt lat="45.24584" lon="5.97784">
        <ele>1051.4595947266</ele>
        <time>2017-02-12T12:15:44Z</time>
      </trkpt>
      <trkpt lat="45.24598" lon="5.97779">
        <ele>1051.2249755859</ele>
        <time>2017-02-12T12:15:52Z</time>
      </trkpt>
      <trkpt lat="45.24601" lon="5.97785">
        <ele>1052.7437744141</ele>
        <time>2017-02-12T12:16:05Z</time>
      </trkpt>
    </trkseg>
  </trk>
</gpx>